<?xml version="1.0" encoding="UTF-8"?>
<gpx creator="strava.com Android" version="1.1" xmlns="http://www.topografix.com/GPX/1/1" xmlns:xsi="http://www.w3.org/2001/XMLSchema-instance" xsi:schemaLocation="http://www.topografix.com/GPX/1/1 http://www.topografix.com/GPX/1/1/gpx.xsd">
 <metadata>
  <time>2013-02-10T17:58:31Z</time>
 </metadata>
 <trk>
  <name> אלון גליל קצר 10-02-2013</name>
  <trkseg>
   <trkpt lat="32.7648930" lon="35.2209093">
    <ele>221.1</ele>
    <time>2013-02-10T17:58:31Z</time>
   </trkpt>
   <trkpt lat="32.7645582" lon="35.2210944">
    <ele>220.2</ele>
    <time>2013-02-10T17:58:43Z</time>
   </trkpt>
   <trkpt lat="32.7643346" lon="35.2212174">
    <ele>220.2</ele>
    <time>2013-02-10T17:58:46Z</time>
   </trkpt>
   <trkpt lat="32.7642853" lon="35.2212477">
    <ele>220.2</ele>
    <time>2013-02-10T17:59:06Z</time>
   </trkpt>
   <trkpt lat="32.7641729" lon="35.2212735">
    <ele>220.6</ele>
    <time>2013-02-10T17:59:38Z</time>
   </trkpt>
   <trkpt lat="32.7639474" lon="35.2213960">
    <ele>220.2</ele>
    <time>2013-02-10T17:59:41Z</time>
   </trkpt>
   <trkpt lat="32.7639107" lon="35.2214278">
    <ele>219.8</ele>
    <time>2013-02-10T18:01:31Z</time>
   </trkpt>
   <trkpt lat="32.7638209" lon="35.2214790">
    <ele>219.5</ele>
    <time>2013-02-10T18:01:34Z</time>
   </trkpt>
   <trkpt lat="32.7638440" lon="35.2214580">
    <ele>219.7</ele>
    <time>2013-02-10T18:08:31Z</time>
   </trkpt>
   <trkpt lat="32.7638708" lon="35.2214748">
    <ele>219.3</ele>
    <time>2013-02-10T18:08:53Z</time>
   </trkpt>
   <trkpt lat="32.7639155" lon="35.2214782">
    <ele>219.0</ele>
    <time>2013-02-10T18:08:56Z</time>
   </trkpt>
   <trkpt lat="32.7639845" lon="35.2214986">
    <ele>218.3</ele>
    <time>2013-02-10T18:08:59Z</time>
   </trkpt>
   <trkpt lat="32.7640848" lon="35.2215420">
    <ele>217.0</ele>
    <time>2013-02-10T18:09:02Z</time>
   </trkpt>
   <trkpt lat="32.7642215" lon="35.2216039">
    <ele>215.4</ele>
    <time>2013-02-10T18:09:05Z</time>
   </trkpt>
   <trkpt lat="32.7643735" lon="35.2216709">
    <ele>213.8</ele>
    <time>2013-02-10T18:09:08Z</time>
   </trkpt>
   <trkpt lat="32.7645005" lon="35.2217368">
    <ele>212.5</ele>
    <time>2013-02-10T18:09:11Z</time>
   </trkpt>
   <trkpt lat="32.7645262" lon="35.2218783">
    <ele>210.6</ele>
    <time>2013-02-10T18:09:14Z</time>
   </trkpt>
   <trkpt lat="32.7644315" lon="35.2220373">
    <ele>208.8</ele>
    <time>2013-02-10T18:09:17Z</time>
   </trkpt>
   <trkpt lat="32.7642916" lon="35.2222151">
    <ele>207.4</ele>
    <time>2013-02-10T18:09:20Z</time>
   </trkpt>
   <trkpt lat="32.7641366" lon="35.2224189">
    <ele>206.1</ele>
    <time>2013-02-10T18:09:23Z</time>
   </trkpt>
   <trkpt lat="32.7639676" lon="35.2226279">
    <ele>204.5</ele>
    <time>2013-02-10T18:09:26Z</time>
   </trkpt>
   <trkpt lat="32.7638137" lon="35.2228323">
    <ele>202.8</ele>
    <time>2013-02-10T18:09:29Z</time>
   </trkpt>
   <trkpt lat="32.7636708" lon="35.2230149">
    <ele>202.2</ele>
    <time>2013-02-10T18:09:32Z</time>
   </trkpt>
   <trkpt lat="32.7635410" lon="35.2231860">
    <ele>202.7</ele>
    <time>2013-02-10T18:09:35Z</time>
   </trkpt>
   <trkpt lat="32.7634252" lon="35.2233340">
    <ele>203.4</ele>
    <time>2013-02-10T18:09:38Z</time>
   </trkpt>
   <trkpt lat="32.7633137" lon="35.2234584">
    <ele>204.1</ele>
    <time>2013-02-10T18:09:41Z</time>
   </trkpt>
   <trkpt lat="32.7632179" lon="35.2235646">
    <ele>204.9</ele>
    <time>2013-02-10T18:09:44Z</time>
   </trkpt>
   <trkpt lat="32.7631744" lon="35.2236503">
    <ele>205.5</ele>
    <time>2013-02-10T18:09:47Z</time>
   </trkpt>
   <trkpt lat="32.7631420" lon="35.2237242">
    <ele>206.0</ele>
    <time>2013-02-10T18:09:50Z</time>
   </trkpt>
   <trkpt lat="32.7631120" lon="35.2238109">
    <ele>206.4</ele>
    <time>2013-02-10T18:09:53Z</time>
   </trkpt>
   <trkpt lat="32.7630591" lon="35.2239189">
    <ele>206.8</ele>
    <time>2013-02-10T18:09:56Z</time>
   </trkpt>
   <trkpt lat="32.7629947" lon="35.2239941">
    <ele>207.1</ele>
    <time>2013-02-10T18:09:59Z</time>
   </trkpt>
   <trkpt lat="32.7629274" lon="35.2240461">
    <ele>207.3</ele>
    <time>2013-02-10T18:10:02Z</time>
   </trkpt>
   <trkpt lat="32.7628351" lon="35.2241383">
    <ele>207.9</ele>
    <time>2013-02-10T18:10:05Z</time>
   </trkpt>
   <trkpt lat="32.7627570" lon="35.2242755">
    <ele>208.5</ele>
    <time>2013-02-10T18:10:08Z</time>
   </trkpt>
   <trkpt lat="32.7626868" lon="35.2244427">
    <ele>209.0</ele>
    <time>2013-02-10T18:10:11Z</time>
   </trkpt>
   <trkpt lat="32.7626078" lon="35.2245992">
    <ele>209.4</ele>
    <time>2013-02-10T18:10:14Z</time>
   </trkpt>
   <trkpt lat="32.7625378" lon="35.2246540">
    <ele>209.4</ele>
    <time>2013-02-10T18:10:17Z</time>
   </trkpt>
   <trkpt lat="32.7624656" lon="35.2246880">
    <ele>209.6</ele>
    <time>2013-02-10T18:10:20Z</time>
   </trkpt>
   <trkpt lat="32.7623961" lon="35.2247505">
    <ele>209.5</ele>
    <time>2013-02-10T18:10:23Z</time>
   </trkpt>
   <trkpt lat="32.7622956" lon="35.2248122">
    <ele>209.5</ele>
    <time>2013-02-10T18:10:26Z</time>
   </trkpt>
   <trkpt lat="32.7622016" lon="35.2248426">
    <ele>209.7</ele>
    <time>2013-02-10T18:10:29Z</time>
   </trkpt>
   <trkpt lat="32.7621040" lon="35.2248802">
    <ele>209.8</ele>
    <time>2013-02-10T18:10:32Z</time>
   </trkpt>
   <trkpt lat="32.7619991" lon="35.2249131">
    <ele>209.8</ele>
    <time>2013-02-10T18:10:35Z</time>
   </trkpt>
   <trkpt lat="32.7618992" lon="35.2249563">
    <ele>209.8</ele>
    <time>2013-02-10T18:10:38Z</time>
   </trkpt>
   <trkpt lat="32.7617997" lon="35.2250125">
    <ele>209.6</ele>
    <time>2013-02-10T18:10:41Z</time>
   </trkpt>
   <trkpt lat="32.7617000" lon="35.2250629">
    <ele>209.4</ele>
    <time>2013-02-10T18:10:44Z</time>
   </trkpt>
   <trkpt lat="32.7616041" lon="35.2251021">
    <ele>209.3</ele>
    <time>2013-02-10T18:10:47Z</time>
   </trkpt>
   <trkpt lat="32.7615178" lon="35.2251237">
    <ele>209.3</ele>
    <time>2013-02-10T18:10:50Z</time>
   </trkpt>
   <trkpt lat="32.7614385" lon="35.2251116">
    <ele>209.5</ele>
    <time>2013-02-10T18:10:53Z</time>
   </trkpt>
   <trkpt lat="32.7613696" lon="35.2250857">
    <ele>209.9</ele>
    <time>2013-02-10T18:10:56Z</time>
   </trkpt>
   <trkpt lat="32.7613042" lon="35.2250645">
    <ele>210.3</ele>
    <time>2013-02-10T18:10:59Z</time>
   </trkpt>
   <trkpt lat="32.7612383" lon="35.2250299">
    <ele>210.7</ele>
    <time>2013-02-10T18:11:02Z</time>
   </trkpt>
   <trkpt lat="32.7611620" lon="35.2249936">
    <ele>210.6</ele>
    <time>2013-02-10T18:11:05Z</time>
   </trkpt>
   <trkpt lat="32.7610899" lon="35.2249543">
    <ele>210.7</ele>
    <time>2013-02-10T18:11:08Z</time>
   </trkpt>
   <trkpt lat="32.7610196" lon="35.2249214">
    <ele>210.7</ele>
    <time>2013-02-10T18:11:11Z</time>
   </trkpt>
   <trkpt lat="32.7609612" lon="35.2248949">
    <ele>210.7</ele>
    <time>2013-02-10T18:11:14Z</time>
   </trkpt>
   <trkpt lat="32.7608981" lon="35.2248537">
    <ele>210.9</ele>
    <time>2013-02-10T18:11:17Z</time>
   </trkpt>
   <trkpt lat="32.7608270" lon="35.2248062">
    <ele>211.1</ele>
    <time>2013-02-10T18:11:20Z</time>
   </trkpt>
   <trkpt lat="32.7607647" lon="35.2247460">
    <ele>211.5</ele>
    <time>2013-02-10T18:11:23Z</time>
   </trkpt>
   <trkpt lat="32.7607147" lon="35.2246950">
    <ele>211.8</ele>
    <time>2013-02-10T18:11:26Z</time>
   </trkpt>
   <trkpt lat="32.7606540" lon="35.2246522">
    <ele>212.1</ele>
    <time>2013-02-10T18:11:29Z</time>
   </trkpt>
   <trkpt lat="32.7605913" lon="35.2246176">
    <ele>212.2</ele>
    <time>2013-02-10T18:11:32Z</time>
   </trkpt>
   <trkpt lat="32.7605202" lon="35.2245704">
    <ele>212.5</ele>
    <time>2013-02-10T18:11:35Z</time>
   </trkpt>
   <trkpt lat="32.7604518" lon="35.2245271">
    <ele>212.6</ele>
    <time>2013-02-10T18:11:38Z</time>
   </trkpt>
   <trkpt lat="32.7604132" lon="35.2245031">
    <ele>212.7</ele>
    <time>2013-02-10T18:11:41Z</time>
   </trkpt>
   <trkpt lat="32.7603573" lon="35.2244983">
    <ele>212.8</ele>
    <time>2013-02-10T18:11:47Z</time>
   </trkpt>
   <trkpt lat="32.7603041" lon="35.2245125">
    <ele>212.7</ele>
    <time>2013-02-10T18:11:50Z</time>
   </trkpt>
   <trkpt lat="32.7602130" lon="35.2245268">
    <ele>212.7</ele>
    <time>2013-02-10T18:11:53Z</time>
   </trkpt>
   <trkpt lat="32.7600921" lon="35.2245575">
    <ele>212.6</ele>
    <time>2013-02-10T18:11:56Z</time>
   </trkpt>
   <trkpt lat="32.7599737" lon="35.2245619">
    <ele>212.7</ele>
    <time>2013-02-10T18:11:59Z</time>
   </trkpt>
   <trkpt lat="32.7599323" lon="35.2245595">
    <ele>212.8</ele>
    <time>2013-02-10T18:12:02Z</time>
   </trkpt>
   <trkpt lat="32.7598987" lon="35.2245958">
    <ele>212.5</ele>
    <time>2013-02-10T18:12:15Z</time>
   </trkpt>
   <trkpt lat="32.7598566" lon="35.2246217">
    <ele>212.2</ele>
    <time>2013-02-10T18:12:18Z</time>
   </trkpt>
   <trkpt lat="32.7597501" lon="35.2247279">
    <ele>211.2</ele>
    <time>2013-02-10T18:12:21Z</time>
   </trkpt>
   <trkpt lat="32.7595966" lon="35.2248493">
    <ele>210.1</ele>
    <time>2013-02-10T18:12:24Z</time>
   </trkpt>
   <trkpt lat="32.7594686" lon="35.2250207">
    <ele>207.9</ele>
    <time>2013-02-10T18:12:27Z</time>
   </trkpt>
   <trkpt lat="32.7593847" lon="35.2252000">
    <ele>205.7</ele>
    <time>2013-02-10T18:12:30Z</time>
   </trkpt>
   <trkpt lat="32.7592235" lon="35.2253460">
    <ele>203.5</ele>
    <time>2013-02-10T18:12:33Z</time>
   </trkpt>
   <trkpt lat="32.7590173" lon="35.2254383">
    <ele>201.7</ele>
    <time>2013-02-10T18:12:36Z</time>
   </trkpt>
   <trkpt lat="32.7588774" lon="35.2255598">
    <ele>199.5</ele>
    <time>2013-02-10T18:12:39Z</time>
   </trkpt>
   <trkpt lat="32.7587463" lon="35.2256816">
    <ele>197.5</ele>
    <time>2013-02-10T18:12:42Z</time>
   </trkpt>
   <trkpt lat="32.7585589" lon="35.2257052">
    <ele>196.3</ele>
    <time>2013-02-10T18:12:45Z</time>
   </trkpt>
   <trkpt lat="32.7583576" lon="35.2257695">
    <ele>194.4</ele>
    <time>2013-02-10T18:12:48Z</time>
   </trkpt>
   <trkpt lat="32.7581534" lon="35.2257662">
    <ele>193.5</ele>
    <time>2013-02-10T18:12:51Z</time>
   </trkpt>
   <trkpt lat="32.7579715" lon="35.2257397">
    <ele>193.1</ele>
    <time>2013-02-10T18:12:54Z</time>
   </trkpt>
   <trkpt lat="32.7578111" lon="35.2256980">
    <ele>192.5</ele>
    <time>2013-02-10T18:12:57Z</time>
   </trkpt>
   <trkpt lat="32.7576999" lon="35.2256308">
    <ele>192.8</ele>
    <time>2013-02-10T18:13:00Z</time>
   </trkpt>
   <trkpt lat="32.7576073" lon="35.2255610">
    <ele>193.4</ele>
    <time>2013-02-10T18:13:03Z</time>
   </trkpt>
   <trkpt lat="32.7575046" lon="35.2255038">
    <ele>193.7</ele>
    <time>2013-02-10T18:13:06Z</time>
   </trkpt>
   <trkpt lat="32.7574032" lon="35.2254219">
    <ele>194.6</ele>
    <time>2013-02-10T18:13:09Z</time>
   </trkpt>
   <trkpt lat="32.7573063" lon="35.2253718">
    <ele>194.7</ele>
    <time>2013-02-10T18:13:12Z</time>
   </trkpt>
   <trkpt lat="32.7572007" lon="35.2253607">
    <ele>194.0</ele>
    <time>2013-02-10T18:13:15Z</time>
   </trkpt>
   <trkpt lat="32.7570760" lon="35.2253282">
    <ele>193.6</ele>
    <time>2013-02-10T18:13:18Z</time>
   </trkpt>
   <trkpt lat="32.7569992" lon="35.2252648">
    <ele>194.3</ele>
    <time>2013-02-10T18:13:21Z</time>
   </trkpt>
   <trkpt lat="32.7569351" lon="35.2252201">
    <ele>194.6</ele>
    <time>2013-02-10T18:13:24Z</time>
   </trkpt>
   <trkpt lat="32.7568588" lon="35.2251887">
    <ele>194.6</ele>
    <time>2013-02-10T18:13:27Z</time>
   </trkpt>
   <trkpt lat="32.7567742" lon="35.2251341">
    <ele>194.9</ele>
    <time>2013-02-10T18:13:30Z</time>
   </trkpt>
   <trkpt lat="32.7566528" lon="35.2251161">
    <ele>194.3</ele>
    <time>2013-02-10T18:13:33Z</time>
   </trkpt>
   <trkpt lat="32.7565280" lon="35.2251346">
    <ele>193.0</ele>
    <time>2013-02-10T18:13:36Z</time>
   </trkpt>
   <trkpt lat="32.7564129" lon="35.2251610">
    <ele>191.6</ele>
    <time>2013-02-10T18:13:39Z</time>
   </trkpt>
   <trkpt lat="32.7563182" lon="35.2251926">
    <ele>190.3</ele>
    <time>2013-02-10T18:13:42Z</time>
   </trkpt>
   <trkpt lat="32.7562146" lon="35.2252021">
    <ele>189.1</ele>
    <time>2013-02-10T18:13:45Z</time>
   </trkpt>
   <trkpt lat="32.7561146" lon="35.2252136">
    <ele>187.4</ele>
    <time>2013-02-10T18:13:48Z</time>
   </trkpt>
   <trkpt lat="32.7560038" lon="35.2252071">
    <ele>185.9</ele>
    <time>2013-02-10T18:13:51Z</time>
   </trkpt>
   <trkpt lat="32.7558998" lon="35.2251811">
    <ele>184.8</ele>
    <time>2013-02-10T18:13:54Z</time>
   </trkpt>
   <trkpt lat="32.7558148" lon="35.2251662">
    <ele>183.8</ele>
    <time>2013-02-10T18:13:57Z</time>
   </trkpt>
   <trkpt lat="32.7557309" lon="35.2251356">
    <ele>183.0</ele>
    <time>2013-02-10T18:14:00Z</time>
   </trkpt>
   <trkpt lat="32.7556509" lon="35.2250918">
    <ele>182.6</ele>
    <time>2013-02-10T18:14:03Z</time>
   </trkpt>
   <trkpt lat="32.7555925" lon="35.2250486">
    <ele>182.4</ele>
    <time>2013-02-10T18:14:06Z</time>
   </trkpt>
   <trkpt lat="32.7555254" lon="35.2250038">
    <ele>182.1</ele>
    <time>2013-02-10T18:14:09Z</time>
   </trkpt>
   <trkpt lat="32.7554754" lon="35.2249391">
    <ele>182.3</ele>
    <time>2013-02-10T18:14:12Z</time>
   </trkpt>
   <trkpt lat="32.7554317" lon="35.2248553">
    <ele>183.0</ele>
    <time>2013-02-10T18:14:15Z</time>
   </trkpt>
   <trkpt lat="32.7553720" lon="35.2247728">
    <ele>183.3</ele>
    <time>2013-02-10T18:14:18Z</time>
   </trkpt>
   <trkpt lat="32.7552814" lon="35.2247095">
    <ele>182.8</ele>
    <time>2013-02-10T18:14:21Z</time>
   </trkpt>
   <trkpt lat="32.7551623" lon="35.2246400">
    <ele>182.1</ele>
    <time>2013-02-10T18:14:24Z</time>
   </trkpt>
   <trkpt lat="32.7550587" lon="35.2245321">
    <ele>182.2</ele>
    <time>2013-02-10T18:14:27Z</time>
   </trkpt>
   <trkpt lat="32.7549994" lon="35.2244281">
    <ele>182.8</ele>
    <time>2013-02-10T18:14:30Z</time>
   </trkpt>
   <trkpt lat="32.7549431" lon="35.2243401">
    <ele>183.3</ele>
    <time>2013-02-10T18:14:33Z</time>
   </trkpt>
   <trkpt lat="32.7548811" lon="35.2242771">
    <ele>183.3</ele>
    <time>2013-02-10T18:14:36Z</time>
   </trkpt>
   <trkpt lat="32.7548014" lon="35.2242211">
    <ele>182.9</ele>
    <time>2013-02-10T18:14:39Z</time>
   </trkpt>
   <trkpt lat="32.7547242" lon="35.2241622">
    <ele>182.7</ele>
    <time>2013-02-10T18:14:42Z</time>
   </trkpt>
   <trkpt lat="32.7546402" lon="35.2241193">
    <ele>182.1</ele>
    <time>2013-02-10T18:14:45Z</time>
   </trkpt>
   <trkpt lat="32.7545464" lon="35.2240838">
    <ele>181.1</ele>
    <time>2013-02-10T18:14:48Z</time>
   </trkpt>
   <trkpt lat="32.7544782" lon="35.2240343">
    <ele>180.5</ele>
    <time>2013-02-10T18:14:51Z</time>
   </trkpt>
   <trkpt lat="32.7543982" lon="35.2239992">
    <ele>179.4</ele>
    <time>2013-02-10T18:14:54Z</time>
   </trkpt>
   <trkpt lat="32.7543090" lon="35.2239805">
    <ele>177.9</ele>
    <time>2013-02-10T18:14:57Z</time>
   </trkpt>
   <trkpt lat="32.7542089" lon="35.2239783">
    <ele>175.9</ele>
    <time>2013-02-10T18:15:00Z</time>
   </trkpt>
   <trkpt lat="32.7540988" lon="35.2239746">
    <ele>173.8</ele>
    <time>2013-02-10T18:15:03Z</time>
   </trkpt>
   <trkpt lat="32.7540042" lon="35.2239500">
    <ele>172.2</ele>
    <time>2013-02-10T18:15:06Z</time>
   </trkpt>
   <trkpt lat="32.7538933" lon="35.2238996">
    <ele>170.7</ele>
    <time>2013-02-10T18:15:09Z</time>
   </trkpt>
   <trkpt lat="32.7537775" lon="35.2238385">
    <ele>169.3</ele>
    <time>2013-02-10T18:15:12Z</time>
   </trkpt>
   <trkpt lat="32.7536969" lon="35.2237436">
    <ele>169.1</ele>
    <time>2013-02-10T18:15:15Z</time>
   </trkpt>
   <trkpt lat="32.7536242" lon="35.2236480">
    <ele>168.6</ele>
    <time>2013-02-10T18:15:18Z</time>
   </trkpt>
   <trkpt lat="32.7535308" lon="35.2235374">
    <ele>167.8</ele>
    <time>2013-02-10T18:15:21Z</time>
   </trkpt>
   <trkpt lat="32.7534200" lon="35.2234178">
    <ele>166.9</ele>
    <time>2013-02-10T18:15:24Z</time>
   </trkpt>
   <trkpt lat="32.7533219" lon="35.2232931">
    <ele>166.1</ele>
    <time>2013-02-10T18:15:27Z</time>
   </trkpt>
   <trkpt lat="32.7532352" lon="35.2232046">
    <ele>165.3</ele>
    <time>2013-02-10T18:15:30Z</time>
   </trkpt>
   <trkpt lat="32.7531583" lon="35.2231185">
    <ele>164.7</ele>
    <time>2013-02-10T18:15:33Z</time>
   </trkpt>
   <trkpt lat="32.7530758" lon="35.2230582">
    <ele>163.7</ele>
    <time>2013-02-10T18:15:36Z</time>
   </trkpt>
   <trkpt lat="32.7529613" lon="35.2230056">
    <ele>162.1</ele>
    <time>2013-02-10T18:15:39Z</time>
   </trkpt>
   <trkpt lat="32.7528528" lon="35.2229649">
    <ele>160.4</ele>
    <time>2013-02-10T18:15:42Z</time>
   </trkpt>
   <trkpt lat="32.7527559" lon="35.2229444">
    <ele>158.9</ele>
    <time>2013-02-10T18:15:45Z</time>
   </trkpt>
   <trkpt lat="32.7526504" lon="35.2229393">
    <ele>157.0</ele>
    <time>2013-02-10T18:15:48Z</time>
   </trkpt>
   <trkpt lat="32.7525397" lon="35.2229384">
    <ele>155.0</ele>
    <time>2013-02-10T18:15:51Z</time>
   </trkpt>
   <trkpt lat="32.7524233" lon="35.2229039">
    <ele>153.1</ele>
    <time>2013-02-10T18:15:54Z</time>
   </trkpt>
   <trkpt lat="32.7523154" lon="35.2228279">
    <ele>151.1</ele>
    <time>2013-02-10T18:15:57Z</time>
   </trkpt>
   <trkpt lat="32.7522615" lon="35.2227656">
    <ele>150.2</ele>
    <time>2013-02-10T18:16:00Z</time>
   </trkpt>
   <trkpt lat="32.7521969" lon="35.2227009">
    <ele>149.0</ele>
    <time>2013-02-10T18:16:03Z</time>
   </trkpt>
   <trkpt lat="32.7521226" lon="35.2226199">
    <ele>147.7</ele>
    <time>2013-02-10T18:16:06Z</time>
   </trkpt>
   <trkpt lat="32.7520454" lon="35.2225185">
    <ele>146.5</ele>
    <time>2013-02-10T18:16:09Z</time>
   </trkpt>
   <trkpt lat="32.7519419" lon="35.2223948">
    <ele>145.3</ele>
    <time>2013-02-10T18:16:12Z</time>
   </trkpt>
   <trkpt lat="32.7518306" lon="35.2222774">
    <ele>144.1</ele>
    <time>2013-02-10T18:16:15Z</time>
   </trkpt>
   <trkpt lat="32.7517169" lon="35.2221561">
    <ele>143.3</ele>
    <time>2013-02-10T18:16:18Z</time>
   </trkpt>
   <trkpt lat="32.7516125" lon="35.2220811">
    <ele>142.5</ele>
    <time>2013-02-10T18:16:21Z</time>
   </trkpt>
   <trkpt lat="32.7515608" lon="35.2219662">
    <ele>143.1</ele>
    <time>2013-02-10T18:16:24Z</time>
   </trkpt>
   <trkpt lat="32.7515723" lon="35.2218540">
    <ele>144.3</ele>
    <time>2013-02-10T18:16:27Z</time>
   </trkpt>
   <trkpt lat="32.7515690" lon="35.2217342">
    <ele>145.4</ele>
    <time>2013-02-10T18:16:30Z</time>
   </trkpt>
   <trkpt lat="32.7516126" lon="35.2216180">
    <ele>146.6</ele>
    <time>2013-02-10T18:16:33Z</time>
   </trkpt>
   <trkpt lat="32.7516774" lon="35.2215337">
    <ele>147.3</ele>
    <time>2013-02-10T18:16:36Z</time>
   </trkpt>
   <trkpt lat="32.7517425" lon="35.2214657">
    <ele>147.7</ele>
    <time>2013-02-10T18:16:39Z</time>
   </trkpt>
   <trkpt lat="32.7518059" lon="35.2214365">
    <ele>147.7</ele>
    <time>2013-02-10T18:16:42Z</time>
   </trkpt>
   <trkpt lat="32.7518518" lon="35.2213836">
    <ele>147.8</ele>
    <time>2013-02-10T18:16:45Z</time>
   </trkpt>
   <trkpt lat="32.7518893" lon="35.2213446">
    <ele>147.8</ele>
    <time>2013-02-10T18:16:48Z</time>
   </trkpt>
   <trkpt lat="32.7519292" lon="35.2212853">
    <ele>147.8</ele>
    <time>2013-02-10T18:16:51Z</time>
   </trkpt>
   <trkpt lat="32.7519570" lon="35.2212008">
    <ele>148.3</ele>
    <time>2013-02-10T18:16:54Z</time>
   </trkpt>
   <trkpt lat="32.7519687" lon="35.2211193">
    <ele>149.2</ele>
    <time>2013-02-10T18:16:57Z</time>
   </trkpt>
   <trkpt lat="32.7519545" lon="35.2210314">
    <ele>150.3</ele>
    <time>2013-02-10T18:17:00Z</time>
   </trkpt>
   <trkpt lat="32.7519201" lon="35.2209559">
    <ele>151.3</ele>
    <time>2013-02-10T18:17:03Z</time>
   </trkpt>
   <trkpt lat="32.7518707" lon="35.2208808">
    <ele>152.4</ele>
    <time>2013-02-10T18:17:06Z</time>
   </trkpt>
   <trkpt lat="32.7518301" lon="35.2208107">
    <ele>153.3</ele>
    <time>2013-02-10T18:17:09Z</time>
   </trkpt>
   <trkpt lat="32.7517710" lon="35.2207473">
    <ele>154.2</ele>
    <time>2013-02-10T18:17:12Z</time>
   </trkpt>
   <trkpt lat="32.7517119" lon="35.2206785">
    <ele>155.2</ele>
    <time>2013-02-10T18:17:15Z</time>
   </trkpt>
   <trkpt lat="32.7516554" lon="35.2205997">
    <ele>156.2</ele>
    <time>2013-02-10T18:17:18Z</time>
   </trkpt>
   <trkpt lat="32.7516155" lon="35.2205205">
    <ele>157.1</ele>
    <time>2013-02-10T18:17:21Z</time>
   </trkpt>
   <trkpt lat="32.7515828" lon="35.2204444">
    <ele>157.9</ele>
    <time>2013-02-10T18:17:24Z</time>
   </trkpt>
   <trkpt lat="32.7515342" lon="35.2203792">
    <ele>158.6</ele>
    <time>2013-02-10T18:17:27Z</time>
   </trkpt>
   <trkpt lat="32.7514633" lon="35.2203266">
    <ele>159.1</ele>
    <time>2013-02-10T18:17:30Z</time>
   </trkpt>
   <trkpt lat="32.7514090" lon="35.2202838">
    <ele>159.5</ele>
    <time>2013-02-10T18:17:33Z</time>
   </trkpt>
   <trkpt lat="32.7513710" lon="35.2202531">
    <ele>159.8</ele>
    <time>2013-02-10T18:17:37Z</time>
   </trkpt>
   <trkpt lat="32.7513221" lon="35.2202417">
    <ele>159.9</ele>
    <time>2013-02-10T18:19:13Z</time>
   </trkpt>
   <trkpt lat="32.7512851" lon="35.2201876">
    <ele>160.3</ele>
    <time>2013-02-10T18:19:16Z</time>
   </trkpt>
   <trkpt lat="32.7512413" lon="35.2201374">
    <ele>160.7</ele>
    <time>2013-02-10T18:19:19Z</time>
   </trkpt>
   <trkpt lat="32.7511817" lon="35.2201160">
    <ele>161.1</ele>
    <time>2013-02-10T18:19:22Z</time>
   </trkpt>
   <trkpt lat="32.7511128" lon="35.2200926">
    <ele>161.5</ele>
    <time>2013-02-10T18:19:25Z</time>
   </trkpt>
   <trkpt lat="32.7510382" lon="35.2201111">
    <ele>161.8</ele>
    <time>2013-02-10T18:19:28Z</time>
   </trkpt>
   <trkpt lat="32.7509614" lon="35.2201203">
    <ele>162.1</ele>
    <time>2013-02-10T18:19:31Z</time>
   </trkpt>
   <trkpt lat="32.7508913" lon="35.2201282">
    <ele>162.4</ele>
    <time>2013-02-10T18:19:34Z</time>
   </trkpt>
   <trkpt lat="32.7508320" lon="35.2201625">
    <ele>162.6</ele>
    <time>2013-02-10T18:19:37Z</time>
   </trkpt>
   <trkpt lat="32.7507685" lon="35.2201833">
    <ele>162.9</ele>
    <time>2013-02-10T18:19:40Z</time>
   </trkpt>
   <trkpt lat="32.7507080" lon="35.2201656">
    <ele>163.2</ele>
    <time>2013-02-10T18:19:43Z</time>
   </trkpt>
   <trkpt lat="32.7506447" lon="35.2201480">
    <ele>163.6</ele>
    <time>2013-02-10T18:19:46Z</time>
   </trkpt>
   <trkpt lat="32.7505834" lon="35.2201455">
    <ele>163.9</ele>
    <time>2013-02-10T18:19:49Z</time>
   </trkpt>
   <trkpt lat="32.7505029" lon="35.2201595">
    <ele>164.3</ele>
    <time>2013-02-10T18:19:52Z</time>
   </trkpt>
   <trkpt lat="32.7504362" lon="35.2201756">
    <ele>164.6</ele>
    <time>2013-02-10T18:19:55Z</time>
   </trkpt>
   <trkpt lat="32.7503759" lon="35.2201800">
    <ele>164.2</ele>
    <time>2013-02-10T18:19:58Z</time>
   </trkpt>
   <trkpt lat="32.7503042" lon="35.2201735">
    <ele>163.4</ele>
    <time>2013-02-10T18:20:01Z</time>
   </trkpt>
   <trkpt lat="32.7502288" lon="35.2201690">
    <ele>162.5</ele>
    <time>2013-02-10T18:20:04Z</time>
   </trkpt>
   <trkpt lat="32.7501533" lon="35.2201737">
    <ele>161.7</ele>
    <time>2013-02-10T18:20:07Z</time>
   </trkpt>
   <trkpt lat="32.7500859" lon="35.2201955">
    <ele>160.8</ele>
    <time>2013-02-10T18:20:10Z</time>
   </trkpt>
   <trkpt lat="32.7500005" lon="35.2202166">
    <ele>159.7</ele>
    <time>2013-02-10T18:20:13Z</time>
   </trkpt>
   <trkpt lat="32.7499229" lon="35.2202086">
    <ele>158.8</ele>
    <time>2013-02-10T18:20:16Z</time>
   </trkpt>
   <trkpt lat="32.7498544" lon="35.2201675">
    <ele>158.2</ele>
    <time>2013-02-10T18:20:19Z</time>
   </trkpt>
   <trkpt lat="32.7497767" lon="35.2201384">
    <ele>157.5</ele>
    <time>2013-02-10T18:20:22Z</time>
   </trkpt>
   <trkpt lat="32.7496973" lon="35.2201133">
    <ele>156.8</ele>
    <time>2013-02-10T18:20:25Z</time>
   </trkpt>
   <trkpt lat="32.7496277" lon="35.2200788">
    <ele>156.3</ele>
    <time>2013-02-10T18:20:28Z</time>
   </trkpt>
   <trkpt lat="32.7495475" lon="35.2200397">
    <ele>155.1</ele>
    <time>2013-02-10T18:20:31Z</time>
   </trkpt>
   <trkpt lat="32.7494729" lon="35.2199923">
    <ele>153.2</ele>
    <time>2013-02-10T18:20:34Z</time>
   </trkpt>
   <trkpt lat="32.7494230" lon="35.2199346">
    <ele>152.1</ele>
    <time>2013-02-10T18:20:37Z</time>
   </trkpt>
   <trkpt lat="32.7493604" lon="35.2198618">
    <ele>150.8</ele>
    <time>2013-02-10T18:20:40Z</time>
   </trkpt>
   <trkpt lat="32.7493199" lon="35.2197719">
    <ele>150.3</ele>
    <time>2013-02-10T18:20:43Z</time>
   </trkpt>
   <trkpt lat="32.7492990" lon="35.2196800">
    <ele>150.4</ele>
    <time>2013-02-10T18:20:46Z</time>
   </trkpt>
   <trkpt lat="32.7492662" lon="35.2195881">
    <ele>150.1</ele>
    <time>2013-02-10T18:20:49Z</time>
   </trkpt>
   <trkpt lat="32.7492419" lon="35.2194875">
    <ele>148.5</ele>
    <time>2013-02-10T18:20:52Z</time>
   </trkpt>
   <trkpt lat="32.7492267" lon="35.2193652">
    <ele>147.0</ele>
    <time>2013-02-10T18:20:55Z</time>
   </trkpt>
   <trkpt lat="32.7492315" lon="35.2192412">
    <ele>146.1</ele>
    <time>2013-02-10T18:20:58Z</time>
   </trkpt>
   <trkpt lat="32.7492661" lon="35.2191110">
    <ele>145.9</ele>
    <time>2013-02-10T18:21:01Z</time>
   </trkpt>
   <trkpt lat="32.7493463" lon="35.2189725">
    <ele>146.7</ele>
    <time>2013-02-10T18:21:04Z</time>
   </trkpt>
   <trkpt lat="32.7494665" lon="35.2188906">
    <ele>148.9</ele>
    <time>2013-02-10T18:21:07Z</time>
   </trkpt>
   <trkpt lat="32.7495908" lon="35.2188588">
    <ele>151.4</ele>
    <time>2013-02-10T18:21:10Z</time>
   </trkpt>
   <trkpt lat="32.7497159" lon="35.2187955">
    <ele>151.5</ele>
    <time>2013-02-10T18:21:13Z</time>
   </trkpt>
   <trkpt lat="32.7498602" lon="35.2187577">
    <ele>152.1</ele>
    <time>2013-02-10T18:21:16Z</time>
   </trkpt>
   <trkpt lat="32.7499883" lon="35.2187699">
    <ele>153.1</ele>
    <time>2013-02-10T18:21:19Z</time>
   </trkpt>
   <trkpt lat="32.7501143" lon="35.2187969">
    <ele>154.3</ele>
    <time>2013-02-10T18:21:22Z</time>
   </trkpt>
   <trkpt lat="32.7502295" lon="35.2188350">
    <ele>155.5</ele>
    <time>2013-02-10T18:21:25Z</time>
   </trkpt>
   <trkpt lat="32.7503370" lon="35.2187725">
    <ele>155.6</ele>
    <time>2013-02-10T18:21:28Z</time>
   </trkpt>
   <trkpt lat="32.7504963" lon="35.2186714">
    <ele>155.8</ele>
    <time>2013-02-10T18:21:31Z</time>
   </trkpt>
   <trkpt lat="32.7506577" lon="35.2185637">
    <ele>155.8</ele>
    <time>2013-02-10T18:21:34Z</time>
   </trkpt>
   <trkpt lat="32.7508131" lon="35.2184489">
    <ele>155.6</ele>
    <time>2013-02-10T18:21:37Z</time>
   </trkpt>
   <trkpt lat="32.7509731" lon="35.2183254">
    <ele>155.3</ele>
    <time>2013-02-10T18:21:40Z</time>
   </trkpt>
   <trkpt lat="32.7510982" lon="35.2182011">
    <ele>154.8</ele>
    <time>2013-02-10T18:21:43Z</time>
   </trkpt>
   <trkpt lat="32.7512181" lon="35.2180813">
    <ele>154.3</ele>
    <time>2013-02-10T18:21:46Z</time>
   </trkpt>
   <trkpt lat="32.7513028" lon="35.2179310">
    <ele>153.6</ele>
    <time>2013-02-10T18:21:49Z</time>
   </trkpt>
   <trkpt lat="32.7514009" lon="35.2177831">
    <ele>153.5</ele>
    <time>2013-02-10T18:21:52Z</time>
   </trkpt>
   <trkpt lat="32.7515117" lon="35.2176401">
    <ele>153.6</ele>
    <time>2013-02-10T18:21:55Z</time>
   </trkpt>
   <trkpt lat="32.7516069" lon="35.2175369">
    <ele>153.9</ele>
    <time>2013-02-10T18:21:58Z</time>
   </trkpt>
   <trkpt lat="32.7516774" lon="35.2174291">
    <ele>153.9</ele>
    <time>2013-02-10T18:22:01Z</time>
   </trkpt>
   <trkpt lat="32.7517603" lon="35.2173414">
    <ele>154.2</ele>
    <time>2013-02-10T18:22:04Z</time>
   </trkpt>
   <trkpt lat="32.7518387" lon="35.2172580">
    <ele>154.5</ele>
    <time>2013-02-10T18:22:07Z</time>
   </trkpt>
   <trkpt lat="32.7519278" lon="35.2171967">
    <ele>155.0</ele>
    <time>2013-02-10T18:22:10Z</time>
   </trkpt>
   <trkpt lat="32.7520179" lon="35.2171344">
    <ele>155.6</ele>
    <time>2013-02-10T18:22:13Z</time>
   </trkpt>
   <trkpt lat="32.7521039" lon="35.2170977">
    <ele>156.4</ele>
    <time>2013-02-10T18:22:16Z</time>
   </trkpt>
   <trkpt lat="32.7521816" lon="35.2170558">
    <ele>157.2</ele>
    <time>2013-02-10T18:22:19Z</time>
   </trkpt>
   <trkpt lat="32.7522522" lon="35.2169979">
    <ele>157.8</ele>
    <time>2013-02-10T18:22:22Z</time>
   </trkpt>
   <trkpt lat="32.7523351" lon="35.2169319">
    <ele>158.6</ele>
    <time>2013-02-10T18:22:25Z</time>
   </trkpt>
   <trkpt lat="32.7524205" lon="35.2168681">
    <ele>159.3</ele>
    <time>2013-02-10T18:22:28Z</time>
   </trkpt>
   <trkpt lat="32.7525093" lon="35.2167995">
    <ele>159.9</ele>
    <time>2013-02-10T18:22:31Z</time>
   </trkpt>
   <trkpt lat="32.7525876" lon="35.2167351">
    <ele>160.4</ele>
    <time>2013-02-10T18:22:34Z</time>
   </trkpt>
   <trkpt lat="32.7526628" lon="35.2166646">
    <ele>160.7</ele>
    <time>2013-02-10T18:22:37Z</time>
   </trkpt>
   <trkpt lat="32.7527425" lon="35.2166014">
    <ele>161.1</ele>
    <time>2013-02-10T18:22:40Z</time>
   </trkpt>
   <trkpt lat="32.7528246" lon="35.2165677">
    <ele>161.7</ele>
    <time>2013-02-10T18:22:43Z</time>
   </trkpt>
   <trkpt lat="32.7529195" lon="35.2165299">
    <ele>162.4</ele>
    <time>2013-02-10T18:22:46Z</time>
   </trkpt>
   <trkpt lat="32.7530037" lon="35.2164841">
    <ele>162.6</ele>
    <time>2013-02-10T18:22:49Z</time>
   </trkpt>
   <trkpt lat="32.7530854" lon="35.2164475">
    <ele>162.9</ele>
    <time>2013-02-10T18:22:52Z</time>
   </trkpt>
   <trkpt lat="32.7531582" lon="35.2164074">
    <ele>163.1</ele>
    <time>2013-02-10T18:22:55Z</time>
   </trkpt>
   <trkpt lat="32.7532209" lon="35.2163699">
    <ele>163.2</ele>
    <time>2013-02-10T18:22:58Z</time>
   </trkpt>
   <trkpt lat="32.7532878" lon="35.2163433">
    <ele>163.5</ele>
    <time>2013-02-10T18:23:01Z</time>
   </trkpt>
   <trkpt lat="32.7533387" lon="35.2162712">
    <ele>163.2</ele>
    <time>2013-02-10T18:23:04Z</time>
   </trkpt>
   <trkpt lat="32.7534000" lon="35.2161802">
    <ele>162.9</ele>
    <time>2013-02-10T18:23:07Z</time>
   </trkpt>
   <trkpt lat="32.7534565" lon="35.2161076">
    <ele>162.6</ele>
    <time>2013-02-10T18:23:10Z</time>
   </trkpt>
   <trkpt lat="32.7535195" lon="35.2160079">
    <ele>162.2</ele>
    <time>2013-02-10T18:23:13Z</time>
   </trkpt>
   <trkpt lat="32.7535782" lon="35.2159043">
    <ele>161.6</ele>
    <time>2013-02-10T18:23:16Z</time>
   </trkpt>
   <trkpt lat="32.7536394" lon="35.2158240">
    <ele>161.2</ele>
    <time>2013-02-10T18:23:19Z</time>
   </trkpt>
   <trkpt lat="32.7536957" lon="35.2157553">
    <ele>160.9</ele>
    <time>2013-02-10T18:23:22Z</time>
   </trkpt>
   <trkpt lat="32.7537772" lon="35.2157400">
    <ele>161.4</ele>
    <time>2013-02-10T18:23:25Z</time>
   </trkpt>
   <trkpt lat="32.7538583" lon="35.2157397">
    <ele>162.3</ele>
    <time>2013-02-10T18:23:28Z</time>
   </trkpt>
   <trkpt lat="32.7539375" lon="35.2156685">
    <ele>162.6</ele>
    <time>2013-02-10T18:23:33Z</time>
   </trkpt>
   <trkpt lat="32.7539931" lon="35.2156042">
    <ele>162.7</ele>
    <time>2013-02-10T18:23:36Z</time>
   </trkpt>
   <trkpt lat="32.7540364" lon="35.2155065">
    <ele>162.3</ele>
    <time>2013-02-10T18:23:39Z</time>
   </trkpt>
   <trkpt lat="32.7540755" lon="35.2154009">
    <ele>161.8</ele>
    <time>2013-02-10T18:23:42Z</time>
   </trkpt>
   <trkpt lat="32.7541226" lon="35.2153022">
    <ele>161.8</ele>
    <time>2013-02-10T18:23:45Z</time>
   </trkpt>
   <trkpt lat="32.7541503" lon="35.2152461">
    <ele>161.8</ele>
    <time>2013-02-10T18:23:48Z</time>
   </trkpt>
   <trkpt lat="32.7542069" lon="35.2151479">
    <ele>161.8</ele>
    <time>2013-02-10T18:23:54Z</time>
   </trkpt>
   <trkpt lat="32.7542173" lon="35.2150383">
    <ele>161.3</ele>
    <time>2013-02-10T18:23:59Z</time>
   </trkpt>
   <trkpt lat="32.7542354" lon="35.2149237">
    <ele>160.8</ele>
    <time>2013-02-10T18:24:04Z</time>
   </trkpt>
   <trkpt lat="32.7542386" lon="35.2148399">
    <ele>160.3</ele>
    <time>2013-02-10T18:24:07Z</time>
   </trkpt>
   <trkpt lat="32.7542513" lon="35.2147502">
    <ele>159.9</ele>
    <time>2013-02-10T18:24:10Z</time>
   </trkpt>
   <trkpt lat="32.7542730" lon="35.2146354">
    <ele>159.3</ele>
    <time>2013-02-10T18:24:15Z</time>
   </trkpt>
   <trkpt lat="32.7542966" lon="35.2145115">
    <ele>159.0</ele>
    <time>2013-02-10T18:24:20Z</time>
   </trkpt>
   <trkpt lat="32.7543114" lon="35.2144473">
    <ele>158.8</ele>
    <time>2013-02-10T18:24:23Z</time>
   </trkpt>
   <trkpt lat="32.7543235" lon="35.2143669">
    <ele>158.6</ele>
    <time>2013-02-10T18:24:26Z</time>
   </trkpt>
   <trkpt lat="32.7543271" lon="35.2142739">
    <ele>158.3</ele>
    <time>2013-02-10T18:24:29Z</time>
   </trkpt>
   <trkpt lat="32.7543116" lon="35.2141708">
    <ele>157.7</ele>
    <time>2013-02-10T18:24:32Z</time>
   </trkpt>
   <trkpt lat="32.7542781" lon="35.2140813">
    <ele>157.1</ele>
    <time>2013-02-10T18:24:35Z</time>
   </trkpt>
   <trkpt lat="32.7542556" lon="35.2139787">
    <ele>156.5</ele>
    <time>2013-02-10T18:24:38Z</time>
   </trkpt>
   <trkpt lat="32.7542972" lon="35.2138515">
    <ele>156.3</ele>
    <time>2013-02-10T18:24:41Z</time>
   </trkpt>
   <trkpt lat="32.7543503" lon="35.2137302">
    <ele>156.3</ele>
    <time>2013-02-10T18:24:44Z</time>
   </trkpt>
   <trkpt lat="32.7543966" lon="35.2136015">
    <ele>156.3</ele>
    <time>2013-02-10T18:24:47Z</time>
   </trkpt>
   <trkpt lat="32.7544323" lon="35.2134585">
    <ele>156.2</ele>
    <time>2013-02-10T18:24:50Z</time>
   </trkpt>
   <trkpt lat="32.7544604" lon="35.2132918">
    <ele>156.0</ele>
    <time>2013-02-10T18:24:53Z</time>
   </trkpt>
   <trkpt lat="32.7544921" lon="35.2131023">
    <ele>155.8</ele>
    <time>2013-02-10T18:24:56Z</time>
   </trkpt>
   <trkpt lat="32.7545570" lon="35.2129042">
    <ele>155.7</ele>
    <time>2013-02-10T18:24:59Z</time>
   </trkpt>
   <trkpt lat="32.7546527" lon="35.2127318">
    <ele>154.0</ele>
    <time>2013-02-10T18:25:02Z</time>
   </trkpt>
   <trkpt lat="32.7547078" lon="35.2125909">
    <ele>152.6</ele>
    <time>2013-02-10T18:25:05Z</time>
   </trkpt>
   <trkpt lat="32.7547671" lon="35.2124613">
    <ele>151.3</ele>
    <time>2013-02-10T18:25:08Z</time>
   </trkpt>
   <trkpt lat="32.7548233" lon="35.2124159">
    <ele>151.1</ele>
    <time>2013-02-10T18:25:11Z</time>
   </trkpt>
   <trkpt lat="32.7548984" lon="35.2124147">
    <ele>151.4</ele>
    <time>2013-02-10T18:25:14Z</time>
   </trkpt>
   <trkpt lat="32.7549708" lon="35.2124471">
    <ele>152.1</ele>
    <time>2013-02-10T18:25:17Z</time>
   </trkpt>
   <trkpt lat="32.7550303" lon="35.2124691">
    <ele>152.6</ele>
    <time>2013-02-10T18:25:20Z</time>
   </trkpt>
   <trkpt lat="32.7550927" lon="35.2124924">
    <ele>153.1</ele>
    <time>2013-02-10T18:25:23Z</time>
   </trkpt>
   <trkpt lat="32.7551404" lon="35.2125422">
    <ele>153.7</ele>
    <time>2013-02-10T18:25:26Z</time>
   </trkpt>
   <trkpt lat="32.7551772" lon="35.2125960">
    <ele>154.4</ele>
    <time>2013-02-10T18:25:29Z</time>
   </trkpt>
   <trkpt lat="32.7552275" lon="35.2126133">
    <ele>154.7</ele>
    <time>2013-02-10T18:25:32Z</time>
   </trkpt>
   <trkpt lat="32.7552845" lon="35.2126340">
    <ele>155.1</ele>
    <time>2013-02-10T18:25:35Z</time>
   </trkpt>
   <trkpt lat="32.7553473" lon="35.2126641">
    <ele>155.6</ele>
    <time>2013-02-10T18:25:38Z</time>
   </trkpt>
   <trkpt lat="32.7554083" lon="35.2126863">
    <ele>156.0</ele>
    <time>2013-02-10T18:25:41Z</time>
   </trkpt>
   <trkpt lat="32.7554587" lon="35.2127089">
    <ele>156.6</ele>
    <time>2013-02-10T18:25:44Z</time>
   </trkpt>
   <trkpt lat="32.7554962" lon="35.2127547">
    <ele>157.2</ele>
    <time>2013-02-10T18:25:47Z</time>
   </trkpt>
   <trkpt lat="32.7555142" lon="35.2128177">
    <ele>157.8</ele>
    <time>2013-02-10T18:25:50Z</time>
   </trkpt>
   <trkpt lat="32.7555210" lon="35.2128674">
    <ele>158.2</ele>
    <time>2013-02-10T18:25:53Z</time>
   </trkpt>
   <trkpt lat="32.7555463" lon="35.2129109">
    <ele>158.7</ele>
    <time>2013-02-10T18:25:56Z</time>
   </trkpt>
   <trkpt lat="32.7555863" lon="35.2129409">
    <ele>159.3</ele>
    <time>2013-02-10T18:25:59Z</time>
   </trkpt>
   <trkpt lat="32.7556323" lon="35.2129663">
    <ele>159.8</ele>
    <time>2013-02-10T18:26:02Z</time>
   </trkpt>
   <trkpt lat="32.7556832" lon="35.2129960">
    <ele>160.4</ele>
    <time>2013-02-10T18:26:05Z</time>
   </trkpt>
   <trkpt lat="32.7557329" lon="35.2130289">
    <ele>161.0</ele>
    <time>2013-02-10T18:26:08Z</time>
   </trkpt>
   <trkpt lat="32.7557804" lon="35.2130685">
    <ele>161.7</ele>
    <time>2013-02-10T18:26:11Z</time>
   </trkpt>
   <trkpt lat="32.7558332" lon="35.2131045">
    <ele>162.3</ele>
    <time>2013-02-10T18:26:14Z</time>
   </trkpt>
   <trkpt lat="32.7558912" lon="35.2131243">
    <ele>162.8</ele>
    <time>2013-02-10T18:26:17Z</time>
   </trkpt>
   <trkpt lat="32.7559552" lon="35.2131495">
    <ele>163.4</ele>
    <time>2013-02-10T18:26:20Z</time>
   </trkpt>
   <trkpt lat="32.7560147" lon="35.2131809">
    <ele>164.0</ele>
    <time>2013-02-10T18:26:23Z</time>
   </trkpt>
   <trkpt lat="32.7560755" lon="35.2132078">
    <ele>164.5</ele>
    <time>2013-02-10T18:26:26Z</time>
   </trkpt>
   <trkpt lat="32.7561360" lon="35.2132282">
    <ele>165.0</ele>
    <time>2013-02-10T18:26:29Z</time>
   </trkpt>
   <trkpt lat="32.7561899" lon="35.2132357">
    <ele>165.4</ele>
    <time>2013-02-10T18:26:32Z</time>
   </trkpt>
   <trkpt lat="32.7562453" lon="35.2132305">
    <ele>165.6</ele>
    <time>2013-02-10T18:26:35Z</time>
   </trkpt>
   <trkpt lat="32.7562885" lon="35.2132479">
    <ele>166.3</ele>
    <time>2013-02-10T18:26:38Z</time>
   </trkpt>
   <trkpt lat="32.7563318" lon="35.2132617">
    <ele>167.0</ele>
    <time>2013-02-10T18:26:41Z</time>
   </trkpt>
   <trkpt lat="32.7563770" lon="35.2132796">
    <ele>167.8</ele>
    <time>2013-02-10T18:26:44Z</time>
   </trkpt>
   <trkpt lat="32.7564102" lon="35.2132962">
    <ele>168.3</ele>
    <time>2013-02-10T18:26:47Z</time>
   </trkpt>
   <trkpt lat="32.7564457" lon="35.2133047">
    <ele>168.9</ele>
    <time>2013-02-10T18:26:50Z</time>
   </trkpt>
   <trkpt lat="32.7564859" lon="35.2133093">
    <ele>169.4</ele>
    <time>2013-02-10T18:26:53Z</time>
   </trkpt>
   <trkpt lat="32.7565206" lon="35.2133062">
    <ele>169.9</ele>
    <time>2013-02-10T18:26:56Z</time>
   </trkpt>
   <trkpt lat="32.7565455" lon="35.2132694">
    <ele>170.0</ele>
    <time>2013-02-10T18:26:59Z</time>
   </trkpt>
   <trkpt lat="32.7565693" lon="35.2132241">
    <ele>170.0</ele>
    <time>2013-02-10T18:27:02Z</time>
   </trkpt>
   <trkpt lat="32.7565801" lon="35.2131745">
    <ele>169.8</ele>
    <time>2013-02-10T18:27:05Z</time>
   </trkpt>
   <trkpt lat="32.7565860" lon="35.2131149">
    <ele>169.5</ele>
    <time>2013-02-10T18:27:08Z</time>
   </trkpt>
   <trkpt lat="32.7565857" lon="35.2130467">
    <ele>169.1</ele>
    <time>2013-02-10T18:27:11Z</time>
   </trkpt>
   <trkpt lat="32.7565946" lon="35.2129793">
    <ele>168.8</ele>
    <time>2013-02-10T18:27:14Z</time>
   </trkpt>
   <trkpt lat="32.7566267" lon="35.2129174">
    <ele>168.9</ele>
    <time>2013-02-10T18:27:17Z</time>
   </trkpt>
   <trkpt lat="32.7566586" lon="35.2128453">
    <ele>169.2</ele>
    <time>2013-02-10T18:27:20Z</time>
   </trkpt>
   <trkpt lat="32.7566595" lon="35.2127731">
    <ele>169.0</ele>
    <time>2013-02-10T18:27:23Z</time>
   </trkpt>
   <trkpt lat="32.7566317" lon="35.2126871">
    <ele>168.4</ele>
    <time>2013-02-10T18:27:26Z</time>
   </trkpt>
   <trkpt lat="32.7566404" lon="35.2125937">
    <ele>168.3</ele>
    <time>2013-02-10T18:27:29Z</time>
   </trkpt>
   <trkpt lat="32.7566405" lon="35.2125223">
    <ele>168.1</ele>
    <time>2013-02-10T18:27:32Z</time>
   </trkpt>
   <trkpt lat="32.7566266" lon="35.2124512">
    <ele>167.7</ele>
    <time>2013-02-10T18:27:35Z</time>
   </trkpt>
   <trkpt lat="32.7565876" lon="35.2124019">
    <ele>166.9</ele>
    <time>2013-02-10T18:27:38Z</time>
   </trkpt>
   <trkpt lat="32.7565656" lon="35.2123479">
    <ele>166.4</ele>
    <time>2013-02-10T18:27:41Z</time>
   </trkpt>
   <trkpt lat="32.7565619" lon="35.2122808">
    <ele>166.1</ele>
    <time>2013-02-10T18:27:44Z</time>
   </trkpt>
   <trkpt lat="32.7566047" lon="35.2122393">
    <ele>166.8</ele>
    <time>2013-02-10T18:27:47Z</time>
   </trkpt>
   <trkpt lat="32.7566303" lon="35.2122547">
    <ele>167.3</ele>
    <time>2013-02-10T18:27:50Z</time>
   </trkpt>
   <trkpt lat="32.7566662" lon="35.2122736">
    <ele>167.9</ele>
    <time>2013-02-10T18:27:56Z</time>
   </trkpt>
   <trkpt lat="32.7566866" lon="35.2123197">
    <ele>168.4</ele>
    <time>2013-02-10T18:27:59Z</time>
   </trkpt>
   <trkpt lat="32.7567101" lon="35.2123748">
    <ele>168.9</ele>
    <time>2013-02-10T18:28:02Z</time>
   </trkpt>
   <trkpt lat="32.7567557" lon="35.2124166">
    <ele>169.8</ele>
    <time>2013-02-10T18:28:05Z</time>
   </trkpt>
   <trkpt lat="32.7567894" lon="35.2124484">
    <ele>170.5</ele>
    <time>2013-02-10T18:28:08Z</time>
   </trkpt>
   <trkpt lat="32.7568154" lon="35.2124897">
    <ele>171.0</ele>
    <time>2013-02-10T18:28:11Z</time>
   </trkpt>
   <trkpt lat="32.7568377" lon="35.2125296">
    <ele>171.4</ele>
    <time>2013-02-10T18:28:14Z</time>
   </trkpt>
   <trkpt lat="32.7568560" lon="35.2125671">
    <ele>171.8</ele>
    <time>2013-02-10T18:28:17Z</time>
   </trkpt>
   <trkpt lat="32.7568898" lon="35.2126227">
    <ele>172.5</ele>
    <time>2013-02-10T18:28:20Z</time>
   </trkpt>
   <trkpt lat="32.7569209" lon="35.2126735">
    <ele>173.1</ele>
    <time>2013-02-10T18:28:23Z</time>
   </trkpt>
   <trkpt lat="32.7569182" lon="35.2127269">
    <ele>173.1</ele>
    <time>2013-02-10T18:28:26Z</time>
   </trkpt>
   <trkpt lat="32.7569172" lon="35.2127809">
    <ele>173.2</ele>
    <time>2013-02-10T18:28:29Z</time>
   </trkpt>
   <trkpt lat="32.7569224" lon="35.2128296">
    <ele>173.3</ele>
    <time>2013-02-10T18:28:32Z</time>
   </trkpt>
   <trkpt lat="32.7569192" lon="35.2128727">
    <ele>173.4</ele>
    <time>2013-02-10T18:28:35Z</time>
   </trkpt>
   <trkpt lat="32.7569463" lon="35.2129099">
    <ele>173.9</ele>
    <time>2013-02-10T18:28:38Z</time>
   </trkpt>
   <trkpt lat="32.7569640" lon="35.2129473">
    <ele>174.3</ele>
    <time>2013-02-10T18:28:41Z</time>
   </trkpt>
   <trkpt lat="32.7569858" lon="35.2129843">
    <ele>174.8</ele>
    <time>2013-02-10T18:28:44Z</time>
   </trkpt>
   <trkpt lat="32.7570148" lon="35.2130317">
    <ele>175.4</ele>
    <time>2013-02-10T18:28:47Z</time>
   </trkpt>
   <trkpt lat="32.7570433" lon="35.2130906">
    <ele>176.0</ele>
    <time>2013-02-10T18:28:50Z</time>
   </trkpt>
   <trkpt lat="32.7570754" lon="35.2131579">
    <ele>176.8</ele>
    <time>2013-02-10T18:28:53Z</time>
   </trkpt>
   <trkpt lat="32.7571045" lon="35.2132250">
    <ele>177.5</ele>
    <time>2013-02-10T18:28:56Z</time>
   </trkpt>
   <trkpt lat="32.7571297" lon="35.2132848">
    <ele>178.1</ele>
    <time>2013-02-10T18:28:59Z</time>
   </trkpt>
   <trkpt lat="32.7571582" lon="35.2133300">
    <ele>178.7</ele>
    <time>2013-02-10T18:29:02Z</time>
   </trkpt>
   <trkpt lat="32.7571935" lon="35.2133764">
    <ele>179.4</ele>
    <time>2013-02-10T18:29:05Z</time>
   </trkpt>
   <trkpt lat="32.7572298" lon="35.2134177">
    <ele>180.1</ele>
    <time>2013-02-10T18:29:08Z</time>
   </trkpt>
   <trkpt lat="32.7572646" lon="35.2134666">
    <ele>180.7</ele>
    <time>2013-02-10T18:29:11Z</time>
   </trkpt>
   <trkpt lat="32.7572913" lon="35.2135129">
    <ele>181.2</ele>
    <time>2013-02-10T18:29:14Z</time>
   </trkpt>
   <trkpt lat="32.7573081" lon="35.2135662">
    <ele>181.6</ele>
    <time>2013-02-10T18:29:17Z</time>
   </trkpt>
   <trkpt lat="32.7573273" lon="35.2136027">
    <ele>181.9</ele>
    <time>2013-02-10T18:29:20Z</time>
   </trkpt>
   <trkpt lat="32.7573517" lon="35.2136173">
    <ele>182.3</ele>
    <time>2013-02-10T18:29:23Z</time>
   </trkpt>
   <trkpt lat="32.7573809" lon="35.2136213">
    <ele>182.7</ele>
    <time>2013-02-10T18:29:26Z</time>
   </trkpt>
   <trkpt lat="32.7574198" lon="35.2136319">
    <ele>183.3</ele>
    <time>2013-02-10T18:29:29Z</time>
   </trkpt>
   <trkpt lat="32.7574608" lon="35.2136370">
    <ele>183.9</ele>
    <time>2013-02-10T18:29:32Z</time>
   </trkpt>
   <trkpt lat="32.7574922" lon="35.2136400">
    <ele>184.3</ele>
    <time>2013-02-10T18:29:35Z</time>
   </trkpt>
   <trkpt lat="32.7575264" lon="35.2136379">
    <ele>184.8</ele>
    <time>2013-02-10T18:29:38Z</time>
   </trkpt>
   <trkpt lat="32.7575582" lon="35.2136260">
    <ele>185.2</ele>
    <time>2013-02-10T18:29:41Z</time>
   </trkpt>
   <trkpt lat="32.7575821" lon="35.2136070">
    <ele>185.6</ele>
    <time>2013-02-10T18:29:44Z</time>
   </trkpt>
   <trkpt lat="32.7575833" lon="35.2135744">
    <ele>185.6</ele>
    <time>2013-02-10T18:29:47Z</time>
   </trkpt>
   <trkpt lat="32.7575861" lon="35.2135405">
    <ele>185.6</ele>
    <time>2013-02-10T18:29:50Z</time>
   </trkpt>
   <trkpt lat="32.7575833" lon="35.2134840">
    <ele>185.6</ele>
    <time>2013-02-10T18:29:53Z</time>
   </trkpt>
   <trkpt lat="32.7575810" lon="35.2134209">
    <ele>185.6</ele>
    <time>2013-02-10T18:29:56Z</time>
   </trkpt>
   <trkpt lat="32.7575839" lon="35.2133604">
    <ele>185.6</ele>
    <time>2013-02-10T18:29:59Z</time>
   </trkpt>
   <trkpt lat="32.7576102" lon="35.2133040">
    <ele>186.0</ele>
    <time>2013-02-10T18:30:02Z</time>
   </trkpt>
   <trkpt lat="32.7576245" lon="35.2132618">
    <ele>186.3</ele>
    <time>2013-02-10T18:30:05Z</time>
   </trkpt>
   <trkpt lat="32.7576207" lon="35.2132138">
    <ele>186.2</ele>
    <time>2013-02-10T18:30:08Z</time>
   </trkpt>
   <trkpt lat="32.7576242" lon="35.2131586">
    <ele>186.3</ele>
    <time>2013-02-10T18:30:11Z</time>
   </trkpt>
   <trkpt lat="32.7576311" lon="35.2131086">
    <ele>186.5</ele>
    <time>2013-02-10T18:30:14Z</time>
   </trkpt>
   <trkpt lat="32.7576515" lon="35.2130754">
    <ele>186.8</ele>
    <time>2013-02-10T18:30:17Z</time>
   </trkpt>
   <trkpt lat="32.7576759" lon="35.2130385">
    <ele>187.3</ele>
    <time>2013-02-10T18:30:20Z</time>
   </trkpt>
   <trkpt lat="32.7577138" lon="35.2130072">
    <ele>188.0</ele>
    <time>2013-02-10T18:30:23Z</time>
   </trkpt>
   <trkpt lat="32.7577310" lon="35.2129556">
    <ele>188.4</ele>
    <time>2013-02-10T18:30:26Z</time>
   </trkpt>
   <trkpt lat="32.7577410" lon="35.2129130">
    <ele>188.6</ele>
    <time>2013-02-10T18:30:29Z</time>
   </trkpt>
   <trkpt lat="32.7577454" lon="35.2128628">
    <ele>188.4</ele>
    <time>2013-02-10T18:30:32Z</time>
   </trkpt>
   <trkpt lat="32.7577537" lon="35.2128086">
    <ele>188.3</ele>
    <time>2013-02-10T18:30:35Z</time>
   </trkpt>
   <trkpt lat="32.7577642" lon="35.2127493">
    <ele>188.2</ele>
    <time>2013-02-10T18:30:38Z</time>
   </trkpt>
   <trkpt lat="32.7577674" lon="35.2126894">
    <ele>188.0</ele>
    <time>2013-02-10T18:30:41Z</time>
   </trkpt>
   <trkpt lat="32.7577624" lon="35.2126203">
    <ele>187.5</ele>
    <time>2013-02-10T18:30:44Z</time>
   </trkpt>
   <trkpt lat="32.7577403" lon="35.2125392">
    <ele>186.7</ele>
    <time>2013-02-10T18:30:47Z</time>
   </trkpt>
   <trkpt lat="32.7577009" lon="35.2124581">
    <ele>185.7</ele>
    <time>2013-02-10T18:30:50Z</time>
   </trkpt>
   <trkpt lat="32.7576467" lon="35.2123824">
    <ele>184.4</ele>
    <time>2013-02-10T18:30:53Z</time>
   </trkpt>
   <trkpt lat="32.7575791" lon="35.2123325">
    <ele>183.1</ele>
    <time>2013-02-10T18:30:56Z</time>
   </trkpt>
   <trkpt lat="32.7575290" lon="35.2122864">
    <ele>182.2</ele>
    <time>2013-02-10T18:30:59Z</time>
   </trkpt>
   <trkpt lat="32.7574720" lon="35.2122529">
    <ele>181.2</ele>
    <time>2013-02-10T18:31:02Z</time>
   </trkpt>
   <trkpt lat="32.7574198" lon="35.2122645">
    <ele>180.4</ele>
    <time>2013-02-10T18:31:05Z</time>
   </trkpt>
   <trkpt lat="32.7573713" lon="35.2122588">
    <ele>179.6</ele>
    <time>2013-02-10T18:31:08Z</time>
   </trkpt>
   <trkpt lat="32.7573308" lon="35.2121888">
    <ele>178.8</ele>
    <time>2013-02-10T18:31:11Z</time>
   </trkpt>
   <trkpt lat="32.7572931" lon="35.2120919">
    <ele>178.0</ele>
    <time>2013-02-10T18:31:14Z</time>
   </trkpt>
   <trkpt lat="32.7572740" lon="35.2119855">
    <ele>177.7</ele>
    <time>2013-02-10T18:31:17Z</time>
   </trkpt>
   <trkpt lat="32.7572492" lon="35.2119006">
    <ele>177.4</ele>
    <time>2013-02-10T18:31:20Z</time>
   </trkpt>
   <trkpt lat="32.7572288" lon="35.2118128">
    <ele>177.2</ele>
    <time>2013-02-10T18:31:23Z</time>
   </trkpt>
   <trkpt lat="32.7572270" lon="35.2117382">
    <ele>177.3</ele>
    <time>2013-02-10T18:31:26Z</time>
   </trkpt>
   <trkpt lat="32.7572133" lon="35.2116593">
    <ele>177.2</ele>
    <time>2013-02-10T18:31:29Z</time>
   </trkpt>
   <trkpt lat="32.7571852" lon="35.2115670">
    <ele>177.0</ele>
    <time>2013-02-10T18:31:32Z</time>
   </trkpt>
   <trkpt lat="32.7571697" lon="35.2114778">
    <ele>177.0</ele>
    <time>2013-02-10T18:31:35Z</time>
   </trkpt>
   <trkpt lat="32.7571438" lon="35.2114025">
    <ele>177.0</ele>
    <time>2013-02-10T18:31:38Z</time>
   </trkpt>
   <trkpt lat="32.7571240" lon="35.2113090">
    <ele>177.0</ele>
    <time>2013-02-10T18:31:41Z</time>
   </trkpt>
   <trkpt lat="32.7570986" lon="35.2112134">
    <ele>177.0</ele>
    <time>2013-02-10T18:31:44Z</time>
   </trkpt>
   <trkpt lat="32.7570726" lon="35.2111217">
    <ele>176.5</ele>
    <time>2013-02-10T18:31:47Z</time>
   </trkpt>
   <trkpt lat="32.7570594" lon="35.2110116">
    <ele>176.0</ele>
    <time>2013-02-10T18:31:50Z</time>
   </trkpt>
   <trkpt lat="32.7570720" lon="35.2108960">
    <ele>176.0</ele>
    <time>2013-02-10T18:31:53Z</time>
   </trkpt>
   <trkpt lat="32.7570613" lon="35.2107942">
    <ele>175.6</ele>
    <time>2013-02-10T18:31:56Z</time>
   </trkpt>
   <trkpt lat="32.7570520" lon="35.2106950">
    <ele>175.2</ele>
    <time>2013-02-10T18:31:59Z</time>
   </trkpt>
   <trkpt lat="32.7570196" lon="35.2106052">
    <ele>174.5</ele>
    <time>2013-02-10T18:32:02Z</time>
   </trkpt>
   <trkpt lat="32.7570079" lon="35.2105019">
    <ele>174.1</ele>
    <time>2013-02-10T18:32:05Z</time>
   </trkpt>
   <trkpt lat="32.7569911" lon="35.2104056">
    <ele>173.6</ele>
    <time>2013-02-10T18:32:08Z</time>
   </trkpt>
   <trkpt lat="32.7569563" lon="35.2102901">
    <ele>172.3</ele>
    <time>2013-02-10T18:32:11Z</time>
   </trkpt>
   <trkpt lat="32.7569287" lon="35.2101553">
    <ele>171.1</ele>
    <time>2013-02-10T18:32:14Z</time>
   </trkpt>
   <trkpt lat="32.7568989" lon="35.2100126">
    <ele>169.9</ele>
    <time>2013-02-10T18:32:17Z</time>
   </trkpt>
   <trkpt lat="32.7569075" lon="35.2098599">
    <ele>169.1</ele>
    <time>2013-02-10T18:32:20Z</time>
   </trkpt>
   <trkpt lat="32.7569356" lon="35.2097208">
    <ele>168.4</ele>
    <time>2013-02-10T18:32:23Z</time>
   </trkpt>
   <trkpt lat="32.7569062" lon="35.2095812">
    <ele>167.4</ele>
    <time>2013-02-10T18:32:26Z</time>
   </trkpt>
   <trkpt lat="32.7568320" lon="35.2094703">
    <ele>166.9</ele>
    <time>2013-02-10T18:32:29Z</time>
   </trkpt>
   <trkpt lat="32.7567585" lon="35.2093934">
    <ele>166.6</ele>
    <time>2013-02-10T18:32:32Z</time>
   </trkpt>
   <trkpt lat="32.7567052" lon="35.2093128">
    <ele>166.4</ele>
    <time>2013-02-10T18:32:35Z</time>
   </trkpt>
   <trkpt lat="32.7566434" lon="35.2092335">
    <ele>166.2</ele>
    <time>2013-02-10T18:32:38Z</time>
   </trkpt>
   <trkpt lat="32.7565690" lon="35.2091943">
    <ele>166.1</ele>
    <time>2013-02-10T18:32:41Z</time>
   </trkpt>
   <trkpt lat="32.7565106" lon="35.2091356">
    <ele>166.0</ele>
    <time>2013-02-10T18:32:44Z</time>
   </trkpt>
   <trkpt lat="32.7564572" lon="35.2090590">
    <ele>165.9</ele>
    <time>2013-02-10T18:32:47Z</time>
   </trkpt>
   <trkpt lat="32.7564310" lon="35.2089748">
    <ele>165.9</ele>
    <time>2013-02-10T18:32:50Z</time>
   </trkpt>
   <trkpt lat="32.7564155" lon="35.2088740">
    <ele>165.9</ele>
    <time>2013-02-10T18:32:53Z</time>
   </trkpt>
   <trkpt lat="32.7564137" lon="35.2087709">
    <ele>166.0</ele>
    <time>2013-02-10T18:32:56Z</time>
   </trkpt>
   <trkpt lat="32.7563988" lon="35.2086701">
    <ele>166.1</ele>
    <time>2013-02-10T18:32:59Z</time>
   </trkpt>
   <trkpt lat="32.7564006" lon="35.2085681">
    <ele>166.2</ele>
    <time>2013-02-10T18:33:02Z</time>
   </trkpt>
   <trkpt lat="32.7564048" lon="35.2084666">
    <ele>166.3</ele>
    <time>2013-02-10T18:33:05Z</time>
   </trkpt>
   <trkpt lat="32.7564115" lon="35.2083853">
    <ele>166.4</ele>
    <time>2013-02-10T18:33:08Z</time>
   </trkpt>
   <trkpt lat="32.7564088" lon="35.2083013">
    <ele>166.4</ele>
    <time>2013-02-10T18:33:11Z</time>
   </trkpt>
   <trkpt lat="32.7564004" lon="35.2082064">
    <ele>166.5</ele>
    <time>2013-02-10T18:33:14Z</time>
   </trkpt>
   <trkpt lat="32.7563892" lon="35.2081223">
    <ele>166.6</ele>
    <time>2013-02-10T18:33:17Z</time>
   </trkpt>
   <trkpt lat="32.7563899" lon="35.2080484">
    <ele>166.7</ele>
    <time>2013-02-10T18:33:20Z</time>
   </trkpt>
   <trkpt lat="32.7563838" lon="35.2079813">
    <ele>166.8</ele>
    <time>2013-02-10T18:33:23Z</time>
   </trkpt>
   <trkpt lat="32.7563724" lon="35.2079234">
    <ele>166.8</ele>
    <time>2013-02-10T18:33:26Z</time>
   </trkpt>
   <trkpt lat="32.7563533" lon="35.2078536">
    <ele>167.0</ele>
    <time>2013-02-10T18:33:29Z</time>
   </trkpt>
   <trkpt lat="32.7563299" lon="35.2077957">
    <ele>167.1</ele>
    <time>2013-02-10T18:33:32Z</time>
   </trkpt>
   <trkpt lat="32.7563092" lon="35.2077268">
    <ele>167.3</ele>
    <time>2013-02-10T18:33:35Z</time>
   </trkpt>
   <trkpt lat="32.7562957" lon="35.2076588">
    <ele>167.5</ele>
    <time>2013-02-10T18:33:38Z</time>
   </trkpt>
   <trkpt lat="32.7562762" lon="35.2075909">
    <ele>167.7</ele>
    <time>2013-02-10T18:33:41Z</time>
   </trkpt>
   <trkpt lat="32.7562596" lon="35.2075219">
    <ele>167.9</ele>
    <time>2013-02-10T18:33:44Z</time>
   </trkpt>
   <trkpt lat="32.7562467" lon="35.2074554">
    <ele>168.1</ele>
    <time>2013-02-10T18:33:47Z</time>
   </trkpt>
   <trkpt lat="32.7562316" lon="35.2073670">
    <ele>168.1</ele>
    <time>2013-02-10T18:33:50Z</time>
   </trkpt>
   <trkpt lat="32.7562439" lon="35.2072785">
    <ele>168.5</ele>
    <time>2013-02-10T18:33:53Z</time>
   </trkpt>
   <trkpt lat="32.7562275" lon="35.2072084">
    <ele>168.5</ele>
    <time>2013-02-10T18:36:33Z</time>
   </trkpt>
   <trkpt lat="32.7561959" lon="35.2071240">
    <ele>168.3</ele>
    <time>2013-02-10T18:36:36Z</time>
   </trkpt>
   <trkpt lat="32.7561558" lon="35.2070513">
    <ele>168.0</ele>
    <time>2013-02-10T18:36:39Z</time>
   </trkpt>
   <trkpt lat="32.7561300" lon="35.2069515">
    <ele>167.9</ele>
    <time>2013-02-10T18:36:42Z</time>
   </trkpt>
   <trkpt lat="32.7560963" lon="35.2068309">
    <ele>167.6</ele>
    <time>2013-02-10T18:36:45Z</time>
   </trkpt>
   <trkpt lat="32.7560543" lon="35.2066954">
    <ele>167.4</ele>
    <time>2013-02-10T18:36:48Z</time>
   </trkpt>
   <trkpt lat="32.7560258" lon="35.2065562">
    <ele>167.2</ele>
    <time>2013-02-10T18:36:51Z</time>
   </trkpt>
   <trkpt lat="32.7560056" lon="35.2064203">
    <ele>167.2</ele>
    <time>2013-02-10T18:36:54Z</time>
   </trkpt>
   <trkpt lat="32.7559897" lon="35.2062924">
    <ele>167.1</ele>
    <time>2013-02-10T18:36:57Z</time>
   </trkpt>
   <trkpt lat="32.7559681" lon="35.2061748">
    <ele>166.6</ele>
    <time>2013-02-10T18:37:00Z</time>
   </trkpt>
   <trkpt lat="32.7559054" lon="35.2061024">
    <ele>165.5</ele>
    <time>2013-02-10T18:37:03Z</time>
   </trkpt>
   <trkpt lat="32.7558660" lon="35.2060093">
    <ele>164.7</ele>
    <time>2013-02-10T18:37:06Z</time>
   </trkpt>
   <trkpt lat="32.7558641" lon="35.2059016">
    <ele>164.1</ele>
    <time>2013-02-10T18:37:09Z</time>
   </trkpt>
   <trkpt lat="32.7558316" lon="35.2057911">
    <ele>163.3</ele>
    <time>2013-02-10T18:37:12Z</time>
   </trkpt>
   <trkpt lat="32.7558043" lon="35.2056800">
    <ele>162.5</ele>
    <time>2013-02-10T18:37:15Z</time>
   </trkpt>
   <trkpt lat="32.7558179" lon="35.2055646">
    <ele>162.1</ele>
    <time>2013-02-10T18:37:18Z</time>
   </trkpt>
   <trkpt lat="32.7558316" lon="35.2054500">
    <ele>161.6</ele>
    <time>2013-02-10T18:37:21Z</time>
   </trkpt>
   <trkpt lat="32.7558207" lon="35.2053465">
    <ele>160.7</ele>
    <time>2013-02-10T18:37:24Z</time>
   </trkpt>
   <trkpt lat="32.7558159" lon="35.2052306">
    <ele>159.6</ele>
    <time>2013-02-10T18:37:27Z</time>
   </trkpt>
   <trkpt lat="32.7557781" lon="35.2051118">
    <ele>158.3</ele>
    <time>2013-02-10T18:37:30Z</time>
   </trkpt>
   <trkpt lat="32.7557464" lon="35.2050032">
    <ele>157.1</ele>
    <time>2013-02-10T18:37:33Z</time>
   </trkpt>
   <trkpt lat="32.7557042" lon="35.2049046">
    <ele>156.1</ele>
    <time>2013-02-10T18:37:36Z</time>
   </trkpt>
   <trkpt lat="32.7556489" lon="35.2048159">
    <ele>155.1</ele>
    <time>2013-02-10T18:37:39Z</time>
   </trkpt>
   <trkpt lat="32.7555673" lon="35.2047363">
    <ele>154.3</ele>
    <time>2013-02-10T18:37:42Z</time>
   </trkpt>
   <trkpt lat="32.7554723" lon="35.2046616">
    <ele>153.6</ele>
    <time>2013-02-10T18:37:45Z</time>
   </trkpt>
   <trkpt lat="32.7553754" lon="35.2045977">
    <ele>152.8</ele>
    <time>2013-02-10T18:37:48Z</time>
   </trkpt>
   <trkpt lat="32.7552840" lon="35.2045351">
    <ele>151.8</ele>
    <time>2013-02-10T18:37:51Z</time>
   </trkpt>
   <trkpt lat="32.7551793" lon="35.2045029">
    <ele>150.9</ele>
    <time>2013-02-10T18:37:54Z</time>
   </trkpt>
   <trkpt lat="32.7550815" lon="35.2044497">
    <ele>149.9</ele>
    <time>2013-02-10T18:37:57Z</time>
   </trkpt>
   <trkpt lat="32.7550120" lon="35.2044060">
    <ele>149.2</ele>
    <time>2013-02-10T18:38:00Z</time>
   </trkpt>
   <trkpt lat="32.7549588" lon="35.2043336">
    <ele>148.5</ele>
    <time>2013-02-10T18:38:03Z</time>
   </trkpt>
   <trkpt lat="32.7548851" lon="35.2042590">
    <ele>147.7</ele>
    <time>2013-02-10T18:38:06Z</time>
   </trkpt>
   <trkpt lat="32.7548132" lon="35.2041965">
    <ele>147.0</ele>
    <time>2013-02-10T18:38:09Z</time>
   </trkpt>
   <trkpt lat="32.7547511" lon="35.2040940">
    <ele>146.2</ele>
    <time>2013-02-10T18:38:12Z</time>
   </trkpt>
   <trkpt lat="32.7547243" lon="35.2039533">
    <ele>145.5</ele>
    <time>2013-02-10T18:38:15Z</time>
   </trkpt>
   <trkpt lat="32.7547277" lon="35.2037882">
    <ele>144.8</ele>
    <time>2013-02-10T18:38:18Z</time>
   </trkpt>
   <trkpt lat="32.7547174" lon="35.2036544">
    <ele>144.7</ele>
    <time>2013-02-10T18:38:21Z</time>
   </trkpt>
   <trkpt lat="32.7546749" lon="35.2035820">
    <ele>144.5</ele>
    <time>2013-02-10T18:38:24Z</time>
   </trkpt>
   <trkpt lat="32.7546257" lon="35.2035433">
    <ele>144.4</ele>
    <time>2013-02-10T18:38:27Z</time>
   </trkpt>
   <trkpt lat="32.7545668" lon="35.2034958">
    <ele>144.2</ele>
    <time>2013-02-10T18:38:30Z</time>
   </trkpt>
   <trkpt lat="32.7544933" lon="35.2034560">
    <ele>143.9</ele>
    <time>2013-02-10T18:38:33Z</time>
   </trkpt>
   <trkpt lat="32.7544126" lon="35.2033890">
    <ele>143.5</ele>
    <time>2013-02-10T18:38:36Z</time>
   </trkpt>
   <trkpt lat="32.7543325" lon="35.2033099">
    <ele>143.2</ele>
    <time>2013-02-10T18:38:39Z</time>
   </trkpt>
   <trkpt lat="32.7542375" lon="35.2032625">
    <ele>142.8</ele>
    <time>2013-02-10T18:38:42Z</time>
   </trkpt>
   <trkpt lat="32.7541304" lon="35.2032734">
    <ele>142.2</ele>
    <time>2013-02-10T18:38:45Z</time>
   </trkpt>
   <trkpt lat="32.7540178" lon="35.2033024">
    <ele>141.5</ele>
    <time>2013-02-10T18:38:48Z</time>
   </trkpt>
   <trkpt lat="32.7538942" lon="35.2033163">
    <ele>140.8</ele>
    <time>2013-02-10T18:38:51Z</time>
   </trkpt>
   <trkpt lat="32.7537638" lon="35.2033083">
    <ele>140.1</ele>
    <time>2013-02-10T18:38:54Z</time>
   </trkpt>
   <trkpt lat="32.7536473" lon="35.2032974">
    <ele>138.8</ele>
    <time>2013-02-10T18:38:57Z</time>
   </trkpt>
   <trkpt lat="32.7535688" lon="35.2032946">
    <ele>137.8</ele>
    <time>2013-02-10T18:39:00Z</time>
   </trkpt>
   <trkpt lat="32.7535292" lon="35.2032949">
    <ele>137.3</ele>
    <time>2013-02-10T18:39:04Z</time>
   </trkpt>
   <trkpt lat="32.7534709" lon="35.2032701">
    <ele>136.6</ele>
    <time>2013-02-10T18:39:07Z</time>
   </trkpt>
   <trkpt lat="32.7533874" lon="35.2032009">
    <ele>135.7</ele>
    <time>2013-02-10T18:39:10Z</time>
   </trkpt>
   <trkpt lat="32.7533095" lon="35.2031024">
    <ele>134.9</ele>
    <time>2013-02-10T18:39:13Z</time>
   </trkpt>
   <trkpt lat="32.7532316" lon="35.2030357">
    <ele>134.0</ele>
    <time>2013-02-10T18:39:16Z</time>
   </trkpt>
   <trkpt lat="32.7531545" lon="35.2029648">
    <ele>133.1</ele>
    <time>2013-02-10T18:39:19Z</time>
   </trkpt>
   <trkpt lat="32.7531026" lon="35.2028537">
    <ele>132.6</ele>
    <time>2013-02-10T18:39:22Z</time>
   </trkpt>
   <trkpt lat="32.7530809" lon="35.2027398">
    <ele>132.7</ele>
    <time>2013-02-10T18:39:25Z</time>
   </trkpt>
   <trkpt lat="32.7530101" lon="35.2026695">
    <ele>131.9</ele>
    <time>2013-02-10T18:39:28Z</time>
   </trkpt>
   <trkpt lat="32.7529398" lon="35.2025787">
    <ele>131.1</ele>
    <time>2013-02-10T18:39:31Z</time>
   </trkpt>
   <trkpt lat="32.7528931" lon="35.2024548">
    <ele>130.8</ele>
    <time>2013-02-10T18:39:34Z</time>
   </trkpt>
   <trkpt lat="32.7528474" lon="35.2023129">
    <ele>130.5</ele>
    <time>2013-02-10T18:39:37Z</time>
   </trkpt>
   <trkpt lat="32.7528219" lon="35.2021681">
    <ele>130.4</ele>
    <time>2013-02-10T18:39:40Z</time>
   </trkpt>
   <trkpt lat="32.7528132" lon="35.2020212">
    <ele>130.7</ele>
    <time>2013-02-10T18:39:43Z</time>
   </trkpt>
   <trkpt lat="32.7527916" lon="35.2018795">
    <ele>130.9</ele>
    <time>2013-02-10T18:39:46Z</time>
   </trkpt>
   <trkpt lat="32.7527485" lon="35.2017434">
    <ele>130.6</ele>
    <time>2013-02-10T18:39:49Z</time>
   </trkpt>
   <trkpt lat="32.7527132" lon="35.2016071">
    <ele>130.5</ele>
    <time>2013-02-10T18:39:52Z</time>
   </trkpt>
   <trkpt lat="32.7527089" lon="35.2014827">
    <ele>130.8</ele>
    <time>2013-02-10T18:39:55Z</time>
   </trkpt>
   <trkpt lat="32.7526663" lon="35.2013815">
    <ele>130.4</ele>
    <time>2013-02-10T18:39:58Z</time>
   </trkpt>
   <trkpt lat="32.7526427" lon="35.2012676">
    <ele>130.3</ele>
    <time>2013-02-10T18:40:01Z</time>
   </trkpt>
   <trkpt lat="32.7526283" lon="35.2011561">
    <ele>130.2</ele>
    <time>2013-02-10T18:40:04Z</time>
   </trkpt>
   <trkpt lat="32.7526207" lon="35.2010454">
    <ele>130.1</ele>
    <time>2013-02-10T18:40:07Z</time>
   </trkpt>
   <trkpt lat="32.7526319" lon="35.2009322">
    <ele>130.3</ele>
    <time>2013-02-10T18:40:10Z</time>
   </trkpt>
   <trkpt lat="32.7526392" lon="35.2008269">
    <ele>130.5</ele>
    <time>2013-02-10T18:40:13Z</time>
   </trkpt>
   <trkpt lat="32.7526351" lon="35.2007336">
    <ele>130.5</ele>
    <time>2013-02-10T18:40:16Z</time>
   </trkpt>
   <trkpt lat="32.7526017" lon="35.2006427">
    <ele>129.9</ele>
    <time>2013-02-10T18:40:19Z</time>
   </trkpt>
   <trkpt lat="32.7525831" lon="35.2005130">
    <ele>129.6</ele>
    <time>2013-02-10T18:40:22Z</time>
   </trkpt>
   <trkpt lat="32.7525799" lon="35.2003968">
    <ele>129.5</ele>
    <time>2013-02-10T18:40:25Z</time>
   </trkpt>
   <trkpt lat="32.7525757" lon="35.2002785">
    <ele>129.5</ele>
    <time>2013-02-10T18:40:28Z</time>
   </trkpt>
   <trkpt lat="32.7525480" lon="35.2001461">
    <ele>129.0</ele>
    <time>2013-02-10T18:40:31Z</time>
   </trkpt>
   <trkpt lat="32.7525519" lon="35.1999949">
    <ele>129.2</ele>
    <time>2013-02-10T18:40:34Z</time>
   </trkpt>
   <trkpt lat="32.7525833" lon="35.1998298">
    <ele>129.7</ele>
    <time>2013-02-10T18:40:37Z</time>
   </trkpt>
   <trkpt lat="32.7525987" lon="35.1996743">
    <ele>130.0</ele>
    <time>2013-02-10T18:40:40Z</time>
   </trkpt>
   <trkpt lat="32.7525810" lon="35.1995339">
    <ele>129.6</ele>
    <time>2013-02-10T18:40:43Z</time>
   </trkpt>
   <trkpt lat="32.7525761" lon="35.1994022">
    <ele>129.2</ele>
    <time>2013-02-10T18:40:46Z</time>
   </trkpt>
   <trkpt lat="32.7525753" lon="35.1992631">
    <ele>128.8</ele>
    <time>2013-02-10T18:40:49Z</time>
   </trkpt>
   <trkpt lat="32.7525652" lon="35.1991127">
    <ele>128.3</ele>
    <time>2013-02-10T18:40:52Z</time>
   </trkpt>
   <trkpt lat="32.7525682" lon="35.1989587">
    <ele>127.9</ele>
    <time>2013-02-10T18:40:55Z</time>
   </trkpt>
   <trkpt lat="32.7525806" lon="35.1988208">
    <ele>127.8</ele>
    <time>2013-02-10T18:40:58Z</time>
   </trkpt>
   <trkpt lat="32.7525888" lon="35.1986845">
    <ele>127.5</ele>
    <time>2013-02-10T18:41:01Z</time>
   </trkpt>
   <trkpt lat="32.7525941" lon="35.1985418">
    <ele>127.3</ele>
    <time>2013-02-10T18:41:04Z</time>
   </trkpt>
   <trkpt lat="32.7526163" lon="35.1984025">
    <ele>127.4</ele>
    <time>2013-02-10T18:41:07Z</time>
   </trkpt>
   <trkpt lat="32.7526617" lon="35.1982708">
    <ele>127.7</ele>
    <time>2013-02-10T18:41:10Z</time>
   </trkpt>
   <trkpt lat="32.7527023" lon="35.1981440">
    <ele>127.9</ele>
    <time>2013-02-10T18:41:13Z</time>
   </trkpt>
   <trkpt lat="32.7527155" lon="35.1980012">
    <ele>127.8</ele>
    <time>2013-02-10T18:41:16Z</time>
   </trkpt>
   <trkpt lat="32.7527261" lon="35.1978547">
    <ele>127.5</ele>
    <time>2013-02-10T18:41:19Z</time>
   </trkpt>
   <trkpt lat="32.7527570" lon="35.1977121">
    <ele>127.3</ele>
    <time>2013-02-10T18:41:22Z</time>
   </trkpt>
   <trkpt lat="32.7528096" lon="35.1975828">
    <ele>127.3</ele>
    <time>2013-02-10T18:41:25Z</time>
   </trkpt>
   <trkpt lat="32.7528897" lon="35.1974648">
    <ele>127.6</ele>
    <time>2013-02-10T18:41:28Z</time>
   </trkpt>
   <trkpt lat="32.7529857" lon="35.1973586">
    <ele>127.8</ele>
    <time>2013-02-10T18:41:31Z</time>
   </trkpt>
   <trkpt lat="32.7530861" lon="35.1972855">
    <ele>128.0</ele>
    <time>2013-02-10T18:41:34Z</time>
   </trkpt>
   <trkpt lat="32.7531881" lon="35.1972269">
    <ele>128.3</ele>
    <time>2013-02-10T18:41:37Z</time>
   </trkpt>
   <trkpt lat="32.7532831" lon="35.1971573">
    <ele>128.3</ele>
    <time>2013-02-10T18:41:40Z</time>
   </trkpt>
   <trkpt lat="32.7533661" lon="35.1970649">
    <ele>128.0</ele>
    <time>2013-02-10T18:41:43Z</time>
   </trkpt>
   <trkpt lat="32.7534569" lon="35.1969921">
    <ele>127.9</ele>
    <time>2013-02-10T18:41:46Z</time>
   </trkpt>
   <trkpt lat="32.7535709" lon="35.1969824">
    <ele>128.3</ele>
    <time>2013-02-10T18:41:49Z</time>
   </trkpt>
   <trkpt lat="32.7536834" lon="35.1969774">
    <ele>128.7</ele>
    <time>2013-02-10T18:41:52Z</time>
   </trkpt>
   <trkpt lat="32.7537973" lon="35.1969771">
    <ele>129.0</ele>
    <time>2013-02-10T18:41:55Z</time>
   </trkpt>
   <trkpt lat="32.7539173" lon="35.1969835">
    <ele>129.0</ele>
    <time>2013-02-10T18:41:58Z</time>
   </trkpt>
   <trkpt lat="32.7540420" lon="35.1970206">
    <ele>129.3</ele>
    <time>2013-02-10T18:42:01Z</time>
   </trkpt>
   <trkpt lat="32.7541410" lon="35.1970961">
    <ele>130.2</ele>
    <time>2013-02-10T18:42:04Z</time>
   </trkpt>
   <trkpt lat="32.7542394" lon="35.1971323">
    <ele>130.7</ele>
    <time>2013-02-10T18:42:07Z</time>
   </trkpt>
   <trkpt lat="32.7543289" lon="35.1971675">
    <ele>131.2</ele>
    <time>2013-02-10T18:42:10Z</time>
   </trkpt>
   <trkpt lat="32.7544015" lon="35.1972409">
    <ele>132.3</ele>
    <time>2013-02-10T18:42:13Z</time>
   </trkpt>
   <trkpt lat="32.7544740" lon="35.1973376">
    <ele>133.8</ele>
    <time>2013-02-10T18:42:16Z</time>
   </trkpt>
   <trkpt lat="32.7545396" lon="35.1974442">
    <ele>135.5</ele>
    <time>2013-02-10T18:42:19Z</time>
   </trkpt>
   <trkpt lat="32.7545692" lon="35.1975655">
    <ele>137.5</ele>
    <time>2013-02-10T18:42:22Z</time>
   </trkpt>
   <trkpt lat="32.7545815" lon="35.1976920">
    <ele>139.5</ele>
    <time>2013-02-10T18:42:25Z</time>
   </trkpt>
   <trkpt lat="32.7545972" lon="35.1977967">
    <ele>140.9</ele>
    <time>2013-02-10T18:42:28Z</time>
   </trkpt>
   <trkpt lat="32.7546379" lon="35.1978650">
    <ele>141.4</ele>
    <time>2013-02-10T18:42:31Z</time>
   </trkpt>
   <trkpt lat="32.7546926" lon="35.1979318">
    <ele>141.5</ele>
    <time>2013-02-10T18:42:34Z</time>
   </trkpt>
   <trkpt lat="32.7547298" lon="35.1980088">
    <ele>141.4</ele>
    <time>2013-02-10T18:42:37Z</time>
   </trkpt>
   <trkpt lat="32.7547645" lon="35.1980932">
    <ele>141.3</ele>
    <time>2013-02-10T18:42:40Z</time>
   </trkpt>
   <trkpt lat="32.7547869" lon="35.1981826">
    <ele>141.5</ele>
    <time>2013-02-10T18:42:43Z</time>
   </trkpt>
   <trkpt lat="32.7548013" lon="35.1982792">
    <ele>141.8</ele>
    <time>2013-02-10T18:42:46Z</time>
   </trkpt>
   <trkpt lat="32.7548346" lon="35.1984138">
    <ele>142.1</ele>
    <time>2013-02-10T18:42:49Z</time>
   </trkpt>
   <trkpt lat="32.7548901" lon="35.1985690">
    <ele>142.3</ele>
    <time>2013-02-10T18:42:52Z</time>
   </trkpt>
   <trkpt lat="32.7549015" lon="35.1987275">
    <ele>143.1</ele>
    <time>2013-02-10T18:42:55Z</time>
   </trkpt>
   <trkpt lat="32.7549006" lon="35.1988576">
    <ele>143.5</ele>
    <time>2013-02-10T18:42:58Z</time>
   </trkpt>
   <trkpt lat="32.7549101" lon="35.1989665">
    <ele>143.7</ele>
    <time>2013-02-10T18:43:01Z</time>
   </trkpt>
   <trkpt lat="32.7549207" lon="35.1990777">
    <ele>143.8</ele>
    <time>2013-02-10T18:43:04Z</time>
   </trkpt>
   <trkpt lat="32.7549272" lon="35.1992027">
    <ele>144.1</ele>
    <time>2013-02-10T18:43:07Z</time>
   </trkpt>
   <trkpt lat="32.7549360" lon="35.1993451">
    <ele>144.3</ele>
    <time>2013-02-10T18:43:10Z</time>
   </trkpt>
   <trkpt lat="32.7549391" lon="35.1995173">
    <ele>144.7</ele>
    <time>2013-02-10T18:43:13Z</time>
   </trkpt>
   <trkpt lat="32.7549372" lon="35.1996766">
    <ele>145.4</ele>
    <time>2013-02-10T18:43:16Z</time>
   </trkpt>
   <trkpt lat="32.7549563" lon="35.1997986">
    <ele>145.8</ele>
    <time>2013-02-10T18:43:19Z</time>
   </trkpt>
   <trkpt lat="32.7549936" lon="35.1998998">
    <ele>145.8</ele>
    <time>2013-02-10T18:43:22Z</time>
   </trkpt>
   <trkpt lat="32.7550179" lon="35.2000276">
    <ele>146.2</ele>
    <time>2013-02-10T18:43:25Z</time>
   </trkpt>
   <trkpt lat="32.7550325" lon="35.2001519">
    <ele>146.7</ele>
    <time>2013-02-10T18:43:28Z</time>
   </trkpt>
   <trkpt lat="32.7550506" lon="35.2002689">
    <ele>147.1</ele>
    <time>2013-02-10T18:43:31Z</time>
   </trkpt>
   <trkpt lat="32.7550670" lon="35.2003554">
    <ele>147.4</ele>
    <time>2013-02-10T18:43:34Z</time>
   </trkpt>
   <trkpt lat="32.7550593" lon="35.2004443">
    <ele>147.9</ele>
    <time>2013-02-10T18:43:37Z</time>
   </trkpt>
   <trkpt lat="32.7550593" lon="35.2005231">
    <ele>148.0</ele>
    <time>2013-02-10T18:43:40Z</time>
   </trkpt>
   <trkpt lat="32.7550580" lon="35.2005889">
    <ele>148.1</ele>
    <time>2013-02-10T18:43:43Z</time>
   </trkpt>
   <trkpt lat="32.7550545" lon="35.2006665">
    <ele>148.3</ele>
    <time>2013-02-10T18:43:46Z</time>
   </trkpt>
   <trkpt lat="32.7550502" lon="35.2007657">
    <ele>148.4</ele>
    <time>2013-02-10T18:43:49Z</time>
   </trkpt>
   <trkpt lat="32.7550308" lon="35.2008690">
    <ele>148.7</ele>
    <time>2013-02-10T18:43:52Z</time>
   </trkpt>
   <trkpt lat="32.7550266" lon="35.2009551">
    <ele>148.9</ele>
    <time>2013-02-10T18:43:55Z</time>
   </trkpt>
   <trkpt lat="32.7550316" lon="35.2010497">
    <ele>149.0</ele>
    <time>2013-02-10T18:43:58Z</time>
   </trkpt>
   <trkpt lat="32.7550320" lon="35.2011583">
    <ele>149.1</ele>
    <time>2013-02-10T18:44:01Z</time>
   </trkpt>
   <trkpt lat="32.7550159" lon="35.2012779">
    <ele>149.3</ele>
    <time>2013-02-10T18:44:04Z</time>
   </trkpt>
   <trkpt lat="32.7550066" lon="35.2013986">
    <ele>149.3</ele>
    <time>2013-02-10T18:44:07Z</time>
   </trkpt>
   <trkpt lat="32.7550123" lon="35.2015005">
    <ele>149.1</ele>
    <time>2013-02-10T18:44:10Z</time>
   </trkpt>
   <trkpt lat="32.7550199" lon="35.2016157">
    <ele>148.9</ele>
    <time>2013-02-10T18:44:13Z</time>
   </trkpt>
   <trkpt lat="32.7550002" lon="35.2017374">
    <ele>148.9</ele>
    <time>2013-02-10T18:44:16Z</time>
   </trkpt>
   <trkpt lat="32.7549580" lon="35.2018375">
    <ele>149.0</ele>
    <time>2013-02-10T18:44:19Z</time>
   </trkpt>
   <trkpt lat="32.7549516" lon="35.2019520">
    <ele>148.9</ele>
    <time>2013-02-10T18:44:22Z</time>
   </trkpt>
   <trkpt lat="32.7549754" lon="35.2020580">
    <ele>148.6</ele>
    <time>2013-02-10T18:44:25Z</time>
   </trkpt>
   <trkpt lat="32.7550034" lon="35.2021118">
    <ele>148.4</ele>
    <time>2013-02-10T18:44:28Z</time>
   </trkpt>
   <trkpt lat="32.7550648" lon="35.2021661">
    <ele>147.9</ele>
    <time>2013-02-10T18:44:31Z</time>
   </trkpt>
   <trkpt lat="32.7551414" lon="35.2022698">
    <ele>147.2</ele>
    <time>2013-02-10T18:44:34Z</time>
   </trkpt>
   <trkpt lat="32.7551794" lon="35.2024057">
    <ele>146.5</ele>
    <time>2013-02-10T18:44:37Z</time>
   </trkpt>
   <trkpt lat="32.7551868" lon="35.2025418">
    <ele>145.9</ele>
    <time>2013-02-10T18:44:40Z</time>
   </trkpt>
   <trkpt lat="32.7552205" lon="35.2026664">
    <ele>145.3</ele>
    <time>2013-02-10T18:44:43Z</time>
   </trkpt>
   <trkpt lat="32.7552681" lon="35.2027840">
    <ele>144.7</ele>
    <time>2013-02-10T18:44:46Z</time>
   </trkpt>
   <trkpt lat="32.7553042" lon="35.2028571">
    <ele>144.4</ele>
    <time>2013-02-10T18:44:49Z</time>
   </trkpt>
   <trkpt lat="32.7553089" lon="35.2029241">
    <ele>144.2</ele>
    <time>2013-02-10T18:47:29Z</time>
   </trkpt>
   <trkpt lat="32.7553228" lon="35.2028885">
    <ele>144.2</ele>
    <time>2013-02-10T18:51:51Z</time>
   </trkpt>
   <trkpt lat="32.7553660" lon="35.2028741">
    <ele>144.2</ele>
    <time>2013-02-10T18:51:54Z</time>
   </trkpt>
   <trkpt lat="32.7554465" lon="35.2028791">
    <ele>143.8</ele>
    <time>2013-02-10T18:51:57Z</time>
   </trkpt>
   <trkpt lat="32.7555427" lon="35.2028837">
    <ele>142.7</ele>
    <time>2013-02-10T18:52:00Z</time>
   </trkpt>
   <trkpt lat="32.7556661" lon="35.2028799">
    <ele>141.4</ele>
    <time>2013-02-10T18:52:03Z</time>
   </trkpt>
   <trkpt lat="32.7558296" lon="35.2028736">
    <ele>139.6</ele>
    <time>2013-02-10T18:52:06Z</time>
   </trkpt>
   <trkpt lat="32.7560353" lon="35.2028799">
    <ele>137.4</ele>
    <time>2013-02-10T18:52:09Z</time>
   </trkpt>
   <trkpt lat="32.7562683" lon="35.2028763">
    <ele>135.1</ele>
    <time>2013-02-10T18:52:12Z</time>
   </trkpt>
   <trkpt lat="32.7564967" lon="35.2028060">
    <ele>135.8</ele>
    <time>2013-02-10T18:52:15Z</time>
   </trkpt>
   <trkpt lat="32.7566817" lon="35.2027329">
    <ele>136.7</ele>
    <time>2013-02-10T18:52:18Z</time>
   </trkpt>
   <trkpt lat="32.7567817" lon="35.2026644">
    <ele>137.4</ele>
    <time>2013-02-10T18:52:21Z</time>
   </trkpt>
   <trkpt lat="32.7568013" lon="35.2025945">
    <ele>137.9</ele>
    <time>2013-02-10T18:52:24Z</time>
   </trkpt>
   <trkpt lat="32.7568108" lon="35.2025152">
    <ele>138.3</ele>
    <time>2013-02-10T18:52:27Z</time>
   </trkpt>
   <trkpt lat="32.7568159" lon="35.2024489">
    <ele>138.6</ele>
    <time>2013-02-10T18:52:30Z</time>
   </trkpt>
   <trkpt lat="32.7568187" lon="35.2023770">
    <ele>139.0</ele>
    <time>2013-02-10T18:52:33Z</time>
   </trkpt>
   <trkpt lat="32.7568192" lon="35.2023030">
    <ele>139.4</ele>
    <time>2013-02-10T18:52:36Z</time>
   </trkpt>
   <trkpt lat="32.7568108" lon="35.2022229">
    <ele>139.7</ele>
    <time>2013-02-10T18:52:39Z</time>
   </trkpt>
   <trkpt lat="32.7568050" lon="35.2021499">
    <ele>140.0</ele>
    <time>2013-02-10T18:52:42Z</time>
   </trkpt>
   <trkpt lat="32.7567833" lon="35.2020784">
    <ele>140.1</ele>
    <time>2013-02-10T18:52:45Z</time>
   </trkpt>
   <trkpt lat="32.7567583" lon="35.2020103">
    <ele>140.0</ele>
    <time>2013-02-10T18:52:48Z</time>
   </trkpt>
   <trkpt lat="32.7567417" lon="35.2019394">
    <ele>139.9</ele>
    <time>2013-02-10T18:52:51Z</time>
   </trkpt>
   <trkpt lat="32.7567209" lon="35.2018736">
    <ele>139.7</ele>
    <time>2013-02-10T18:52:54Z</time>
   </trkpt>
   <trkpt lat="32.7566874" lon="35.2018095">
    <ele>139.4</ele>
    <time>2013-02-10T18:52:57Z</time>
   </trkpt>
   <trkpt lat="32.7566530" lon="35.2017362">
    <ele>139.0</ele>
    <time>2013-02-10T18:53:00Z</time>
   </trkpt>
   <trkpt lat="32.7566291" lon="35.2016628">
    <ele>138.8</ele>
    <time>2013-02-10T18:53:03Z</time>
   </trkpt>
   <trkpt lat="32.7566012" lon="35.2016010">
    <ele>138.4</ele>
    <time>2013-02-10T18:53:06Z</time>
   </trkpt>
   <trkpt lat="32.7565807" lon="35.2015308">
    <ele>138.2</ele>
    <time>2013-02-10T18:53:09Z</time>
   </trkpt>
   <trkpt lat="32.7565840" lon="35.2014627">
    <ele>138.2</ele>
    <time>2013-02-10T18:53:12Z</time>
   </trkpt>
   <trkpt lat="32.7565631" lon="35.2014012">
    <ele>137.9</ele>
    <time>2013-02-10T18:53:15Z</time>
   </trkpt>
   <trkpt lat="32.7565348" lon="35.2013277">
    <ele>137.5</ele>
    <time>2013-02-10T18:53:18Z</time>
   </trkpt>
   <trkpt lat="32.7565260" lon="35.2012456">
    <ele>137.3</ele>
    <time>2013-02-10T18:53:21Z</time>
   </trkpt>
   <trkpt lat="32.7565363" lon="35.2011703">
    <ele>137.3</ele>
    <time>2013-02-10T18:53:24Z</time>
   </trkpt>
   <trkpt lat="32.7565552" lon="35.2010824">
    <ele>137.4</ele>
    <time>2013-02-10T18:53:27Z</time>
   </trkpt>
   <trkpt lat="32.7565736" lon="35.2010045">
    <ele>137.5</ele>
    <time>2013-02-10T18:53:30Z</time>
   </trkpt>
   <trkpt lat="32.7565822" lon="35.2009349">
    <ele>137.4</ele>
    <time>2013-02-10T18:53:33Z</time>
   </trkpt>
   <trkpt lat="32.7565926" lon="35.2008786">
    <ele>137.5</ele>
    <time>2013-02-10T18:53:36Z</time>
   </trkpt>
   <trkpt lat="32.7565986" lon="35.2008207">
    <ele>137.4</ele>
    <time>2013-02-10T18:53:39Z</time>
   </trkpt>
   <trkpt lat="32.7565954" lon="35.2007763">
    <ele>137.3</ele>
    <time>2013-02-10T18:53:42Z</time>
   </trkpt>
   <trkpt lat="32.7565923" lon="35.2006648">
    <ele>136.9</ele>
    <time>2013-02-10T18:53:46Z</time>
   </trkpt>
   <trkpt lat="32.7566163" lon="35.2005402">
    <ele>137.0</ele>
    <time>2013-02-10T18:53:52Z</time>
   </trkpt>
   <trkpt lat="32.7566269" lon="35.2004126">
    <ele>136.9</ele>
    <time>2013-02-10T18:53:57Z</time>
   </trkpt>
   <trkpt lat="32.7566907" lon="35.2003059">
    <ele>137.5</ele>
    <time>2013-02-10T18:54:02Z</time>
   </trkpt>
   <trkpt lat="32.7567391" lon="35.2001946">
    <ele>138.0</ele>
    <time>2013-02-10T18:54:08Z</time>
   </trkpt>
   <trkpt lat="32.7567775" lon="35.2000868">
    <ele>138.3</ele>
    <time>2013-02-10T18:54:13Z</time>
   </trkpt>
   <trkpt lat="32.7568459" lon="35.1999982">
    <ele>139.1</ele>
    <time>2013-02-10T18:54:18Z</time>
   </trkpt>
   <trkpt lat="32.7569350" lon="35.1999818">
    <ele>140.5</ele>
    <time>2013-02-10T18:54:27Z</time>
   </trkpt>
   <trkpt lat="32.7570256" lon="35.1999712">
    <ele>142.0</ele>
    <time>2013-02-10T18:54:33Z</time>
   </trkpt>
   <trkpt lat="32.7571223" lon="35.1999915">
    <ele>143.4</ele>
    <time>2013-02-10T18:54:39Z</time>
   </trkpt>
   <trkpt lat="32.7571607" lon="35.2001047">
    <ele>144.2</ele>
    <time>2013-02-10T18:54:47Z</time>
   </trkpt>
   <trkpt lat="32.7571725" lon="35.2002247">
    <ele>144.7</ele>
    <time>2013-02-10T18:54:54Z</time>
   </trkpt>
   <trkpt lat="32.7572024" lon="35.2002942">
    <ele>145.3</ele>
    <time>2013-02-10T18:54:57Z</time>
   </trkpt>
   <trkpt lat="32.7572194" lon="35.2003673">
    <ele>145.8</ele>
    <time>2013-02-10T18:55:00Z</time>
   </trkpt>
   <trkpt lat="32.7572397" lon="35.2004311">
    <ele>146.3</ele>
    <time>2013-02-10T18:55:03Z</time>
   </trkpt>
   <trkpt lat="32.7572656" lon="35.2004800">
    <ele>146.8</ele>
    <time>2013-02-10T18:55:06Z</time>
   </trkpt>
   <trkpt lat="32.7572857" lon="35.2005217">
    <ele>147.3</ele>
    <time>2013-02-10T18:55:09Z</time>
   </trkpt>
   <trkpt lat="32.7572988" lon="35.2005698">
    <ele>147.7</ele>
    <time>2013-02-10T18:55:12Z</time>
   </trkpt>
   <trkpt lat="32.7573285" lon="35.2006205">
    <ele>148.3</ele>
    <time>2013-02-10T18:55:16Z</time>
   </trkpt>
   <trkpt lat="32.7573518" lon="35.2006644">
    <ele>148.8</ele>
    <time>2013-02-10T18:55:19Z</time>
   </trkpt>
   <trkpt lat="32.7573824" lon="35.2007090">
    <ele>149.5</ele>
    <time>2013-02-10T18:55:22Z</time>
   </trkpt>
   <trkpt lat="32.7574069" lon="35.2007482">
    <ele>150.1</ele>
    <time>2013-02-10T18:55:25Z</time>
   </trkpt>
   <trkpt lat="32.7574293" lon="35.2007797">
    <ele>150.6</ele>
    <time>2013-02-10T18:55:28Z</time>
   </trkpt>
   <trkpt lat="32.7574628" lon="35.2008097">
    <ele>151.3</ele>
    <time>2013-02-10T18:55:31Z</time>
   </trkpt>
   <trkpt lat="32.7574987" lon="35.2008231">
    <ele>151.9</ele>
    <time>2013-02-10T18:55:34Z</time>
   </trkpt>
   <trkpt lat="32.7575372" lon="35.2008383">
    <ele>152.7</ele>
    <time>2013-02-10T18:55:37Z</time>
   </trkpt>
   <trkpt lat="32.7575684" lon="35.2008534">
    <ele>153.3</ele>
    <time>2013-02-10T18:55:40Z</time>
   </trkpt>
   <trkpt lat="32.7575944" lon="35.2008771">
    <ele>153.8</ele>
    <time>2013-02-10T18:55:43Z</time>
   </trkpt>
   <trkpt lat="32.7576254" lon="35.2009060">
    <ele>154.5</ele>
    <time>2013-02-10T18:55:46Z</time>
   </trkpt>
   <trkpt lat="32.7576659" lon="35.2009133">
    <ele>155.2</ele>
    <time>2013-02-10T18:55:49Z</time>
   </trkpt>
   <trkpt lat="32.7576923" lon="35.2009293">
    <ele>155.8</ele>
    <time>2013-02-10T18:55:52Z</time>
   </trkpt>
   <trkpt lat="32.7577256" lon="35.2009699">
    <ele>156.6</ele>
    <time>2013-02-10T18:55:56Z</time>
   </trkpt>
   <trkpt lat="32.7577625" lon="35.2009807">
    <ele>157.3</ele>
    <time>2013-02-10T18:55:59Z</time>
   </trkpt>
   <trkpt lat="32.7577992" lon="35.2010035">
    <ele>158.1</ele>
    <time>2013-02-10T18:56:02Z</time>
   </trkpt>
   <trkpt lat="32.7578308" lon="35.2010339">
    <ele>158.9</ele>
    <time>2013-02-10T18:56:05Z</time>
   </trkpt>
   <trkpt lat="32.7579108" lon="35.2010936">
    <ele>160.8</ele>
    <time>2013-02-10T18:56:20Z</time>
   </trkpt>
   <trkpt lat="32.7579499" lon="35.2010706">
    <ele>160.9</ele>
    <time>2013-02-10T18:56:23Z</time>
   </trkpt>
   <trkpt lat="32.7579923" lon="35.2010552">
    <ele>161.1</ele>
    <time>2013-02-10T18:56:26Z</time>
   </trkpt>
   <trkpt lat="32.7580364" lon="35.2010576">
    <ele>161.4</ele>
    <time>2013-02-10T18:56:29Z</time>
   </trkpt>
   <trkpt lat="32.7580800" lon="35.2010711">
    <ele>161.7</ele>
    <time>2013-02-10T18:56:32Z</time>
   </trkpt>
   <trkpt lat="32.7581566" lon="35.2009848">
    <ele>161.6</ele>
    <time>2013-02-10T18:57:16Z</time>
   </trkpt>
   <trkpt lat="32.7581665" lon="35.2010339">
    <ele>162.0</ele>
    <time>2013-02-10T18:57:20Z</time>
   </trkpt>
   <trkpt lat="32.7581837" lon="35.2010686">
    <ele>162.4</ele>
    <time>2013-02-10T18:58:20Z</time>
   </trkpt>
   <trkpt lat="32.7582063" lon="35.2011006">
    <ele>162.7</ele>
    <time>2013-02-10T18:58:25Z</time>
   </trkpt>
   <trkpt lat="32.7582610" lon="35.2010961">
    <ele>163.0</ele>
    <time>2013-02-10T18:58:28Z</time>
   </trkpt>
   <trkpt lat="32.7583141" lon="35.2010863">
    <ele>163.3</ele>
    <time>2013-02-10T18:58:31Z</time>
   </trkpt>
   <trkpt lat="32.7583594" lon="35.2010666">
    <ele>163.5</ele>
    <time>2013-02-10T18:58:34Z</time>
   </trkpt>
   <trkpt lat="32.7584019" lon="35.2010465">
    <ele>163.6</ele>
    <time>2013-02-10T18:58:37Z</time>
   </trkpt>
   <trkpt lat="32.7584360" lon="35.2010337">
    <ele>163.7</ele>
    <time>2013-02-10T18:58:40Z</time>
   </trkpt>
   <trkpt lat="32.7584919" lon="35.2010131">
    <ele>163.9</ele>
    <time>2013-02-10T18:58:43Z</time>
   </trkpt>
   <trkpt lat="32.7585985" lon="35.2009882">
    <ele>164.5</ele>
    <time>2013-02-10T18:58:46Z</time>
   </trkpt>
   <trkpt lat="32.7587335" lon="35.2009765">
    <ele>165.3</ele>
    <time>2013-02-10T18:58:49Z</time>
   </trkpt>
   <trkpt lat="32.7588710" lon="35.2009638">
    <ele>164.1</ele>
    <time>2013-02-10T18:58:52Z</time>
   </trkpt>
   <trkpt lat="32.7589939" lon="35.2010043">
    <ele>163.1</ele>
    <time>2013-02-10T18:58:55Z</time>
   </trkpt>
   <trkpt lat="32.7590832" lon="35.2010790">
    <ele>162.8</ele>
    <time>2013-02-10T18:58:58Z</time>
   </trkpt>
   <trkpt lat="32.7591485" lon="35.2011633">
    <ele>162.9</ele>
    <time>2013-02-10T18:59:01Z</time>
   </trkpt>
   <trkpt lat="32.7592147" lon="35.2012498">
    <ele>163.1</ele>
    <time>2013-02-10T18:59:04Z</time>
   </trkpt>
   <trkpt lat="32.7593096" lon="35.2013687">
    <ele>163.0</ele>
    <time>2013-02-10T18:59:07Z</time>
   </trkpt>
   <trkpt lat="32.7593890" lon="35.2014733">
    <ele>163.2</ele>
    <time>2013-02-10T18:59:10Z</time>
   </trkpt>
   <trkpt lat="32.7594702" lon="35.2015784">
    <ele>163.6</ele>
    <time>2013-02-10T18:59:13Z</time>
   </trkpt>
   <trkpt lat="32.7595473" lon="35.2016820">
    <ele>164.2</ele>
    <time>2013-02-10T18:59:16Z</time>
   </trkpt>
   <trkpt lat="32.7596207" lon="35.2017366">
    <ele>163.9</ele>
    <time>2013-02-10T18:59:19Z</time>
   </trkpt>
   <trkpt lat="32.7596628" lon="35.2018040">
    <ele>163.7</ele>
    <time>2013-02-10T18:59:22Z</time>
   </trkpt>
   <trkpt lat="32.7597172" lon="35.2019052">
    <ele>163.5</ele>
    <time>2013-02-10T18:59:25Z</time>
   </trkpt>
   <trkpt lat="32.7598154" lon="35.2019559">
    <ele>162.0</ele>
    <time>2013-02-10T18:59:28Z</time>
   </trkpt>
   <trkpt lat="32.7598935" lon="35.2020235">
    <ele>161.1</ele>
    <time>2013-02-10T18:59:31Z</time>
   </trkpt>
   <trkpt lat="32.7599590" lon="35.2020903">
    <ele>160.4</ele>
    <time>2013-02-10T18:59:34Z</time>
   </trkpt>
   <trkpt lat="32.7600482" lon="35.2021453">
    <ele>159.2</ele>
    <time>2013-02-10T18:59:37Z</time>
   </trkpt>
   <trkpt lat="32.7601352" lon="35.2022008">
    <ele>158.2</ele>
    <time>2013-02-10T18:59:40Z</time>
   </trkpt>
   <trkpt lat="32.7602000" lon="35.2022504">
    <ele>157.7</ele>
    <time>2013-02-10T18:59:43Z</time>
   </trkpt>
   <trkpt lat="32.7602402" lon="35.2022994">
    <ele>157.7</ele>
    <time>2013-02-10T18:59:46Z</time>
   </trkpt>
   <trkpt lat="32.7602696" lon="35.2023558">
    <ele>158.0</ele>
    <time>2013-02-10T18:59:49Z</time>
   </trkpt>
   <trkpt lat="32.7602980" lon="35.2024190">
    <ele>158.5</ele>
    <time>2013-02-10T18:59:52Z</time>
   </trkpt>
   <trkpt lat="32.7603264" lon="35.2024915">
    <ele>159.2</ele>
    <time>2013-02-10T18:59:55Z</time>
   </trkpt>
   <trkpt lat="32.7603624" lon="35.2025733">
    <ele>160.0</ele>
    <time>2013-02-10T18:59:58Z</time>
   </trkpt>
   <trkpt lat="32.7604032" lon="35.2026514">
    <ele>160.7</ele>
    <time>2013-02-10T19:00:01Z</time>
   </trkpt>
   <trkpt lat="32.7604606" lon="35.2027235">
    <ele>161.0</ele>
    <time>2013-02-10T19:00:04Z</time>
   </trkpt>
   <trkpt lat="32.7605052" lon="35.2028260">
    <ele>161.9</ele>
    <time>2013-02-10T19:00:07Z</time>
   </trkpt>
   <trkpt lat="32.7605346" lon="35.2029282">
    <ele>162.9</ele>
    <time>2013-02-10T19:00:10Z</time>
   </trkpt>
   <trkpt lat="32.7605527" lon="35.2030314">
    <ele>164.2</ele>
    <time>2013-02-10T19:00:13Z</time>
   </trkpt>
   <trkpt lat="32.7605629" lon="35.2031300">
    <ele>165.6</ele>
    <time>2013-02-10T19:00:16Z</time>
   </trkpt>
   <trkpt lat="32.7605721" lon="35.2032079">
    <ele>166.6</ele>
    <time>2013-02-10T19:00:19Z</time>
   </trkpt>
   <trkpt lat="32.7605831" lon="35.2032920">
    <ele>167.7</ele>
    <time>2013-02-10T19:00:22Z</time>
   </trkpt>
   <trkpt lat="32.7605947" lon="35.2033818">
    <ele>168.8</ele>
    <time>2013-02-10T19:00:25Z</time>
   </trkpt>
   <trkpt lat="32.7606028" lon="35.2034725">
    <ele>170.0</ele>
    <time>2013-02-10T19:00:28Z</time>
   </trkpt>
   <trkpt lat="32.7606140" lon="35.2035566">
    <ele>171.1</ele>
    <time>2013-02-10T19:00:31Z</time>
   </trkpt>
   <trkpt lat="32.7606128" lon="35.2036350">
    <ele>172.3</ele>
    <time>2013-02-10T19:00:34Z</time>
   </trkpt>
   <trkpt lat="32.7606059" lon="35.2037015">
    <ele>173.5</ele>
    <time>2013-02-10T19:00:37Z</time>
   </trkpt>
   <trkpt lat="32.7606137" lon="35.2037684">
    <ele>174.1</ele>
    <time>2013-02-10T19:00:40Z</time>
   </trkpt>
   <trkpt lat="32.7606118" lon="35.2038386">
    <ele>174.5</ele>
    <time>2013-02-10T19:00:43Z</time>
   </trkpt>
   <trkpt lat="32.7606087" lon="35.2039074">
    <ele>174.9</ele>
    <time>2013-02-10T19:00:46Z</time>
   </trkpt>
   <trkpt lat="32.7606070" lon="35.2039771">
    <ele>175.3</ele>
    <time>2013-02-10T19:00:49Z</time>
   </trkpt>
   <trkpt lat="32.7606080" lon="35.2040507">
    <ele>175.6</ele>
    <time>2013-02-10T19:00:52Z</time>
   </trkpt>
   <trkpt lat="32.7606079" lon="35.2041259">
    <ele>176.0</ele>
    <time>2013-02-10T19:00:55Z</time>
   </trkpt>
   <trkpt lat="32.7606103" lon="35.2041988">
    <ele>176.3</ele>
    <time>2013-02-10T19:00:58Z</time>
   </trkpt>
   <trkpt lat="32.7606160" lon="35.2042659">
    <ele>176.5</ele>
    <time>2013-02-10T19:01:01Z</time>
   </trkpt>
   <trkpt lat="32.7606242" lon="35.2043269">
    <ele>176.7</ele>
    <time>2013-02-10T19:01:04Z</time>
   </trkpt>
   <trkpt lat="32.7606295" lon="35.2043917">
    <ele>176.9</ele>
    <time>2013-02-10T19:01:07Z</time>
   </trkpt>
   <trkpt lat="32.7606315" lon="35.2044604">
    <ele>177.3</ele>
    <time>2013-02-10T19:01:10Z</time>
   </trkpt>
   <trkpt lat="32.7606348" lon="35.2045288">
    <ele>177.6</ele>
    <time>2013-02-10T19:01:13Z</time>
   </trkpt>
   <trkpt lat="32.7606354" lon="35.2045969">
    <ele>177.9</ele>
    <time>2013-02-10T19:01:16Z</time>
   </trkpt>
   <trkpt lat="32.7606375" lon="35.2046562">
    <ele>178.1</ele>
    <time>2013-02-10T19:01:19Z</time>
   </trkpt>
   <trkpt lat="32.7606664" lon="35.2047152">
    <ele>177.9</ele>
    <time>2013-02-10T19:01:22Z</time>
   </trkpt>
   <trkpt lat="32.7607285" lon="35.2047756">
    <ele>177.3</ele>
    <time>2013-02-10T19:01:25Z</time>
   </trkpt>
   <trkpt lat="32.7608166" lon="35.2047567">
    <ele>176.1</ele>
    <time>2013-02-10T19:01:28Z</time>
   </trkpt>
   <trkpt lat="32.7609024" lon="35.2046977">
    <ele>174.6</ele>
    <time>2013-02-10T19:01:31Z</time>
   </trkpt>
   <trkpt lat="32.7609433" lon="35.2045960">
    <ele>173.5</ele>
    <time>2013-02-10T19:01:34Z</time>
   </trkpt>
   <trkpt lat="32.7609805" lon="35.2045034">
    <ele>172.1</ele>
    <time>2013-02-10T19:01:37Z</time>
   </trkpt>
   <trkpt lat="32.7610209" lon="35.2044440">
    <ele>170.9</ele>
    <time>2013-02-10T19:01:40Z</time>
   </trkpt>
   <trkpt lat="32.7610412" lon="35.2043909">
    <ele>170.0</ele>
    <time>2013-02-10T19:01:43Z</time>
   </trkpt>
   <trkpt lat="32.7610458" lon="35.2043425">
    <ele>169.4</ele>
    <time>2013-02-10T19:01:46Z</time>
   </trkpt>
   <trkpt lat="32.7610524" lon="35.2042937">
    <ele>168.8</ele>
    <time>2013-02-10T19:01:49Z</time>
   </trkpt>
   <trkpt lat="32.7610660" lon="35.2042502">
    <ele>168.0</ele>
    <time>2013-02-10T19:01:52Z</time>
   </trkpt>
   <trkpt lat="32.7610745" lon="35.2042001">
    <ele>167.3</ele>
    <time>2013-02-10T19:01:55Z</time>
   </trkpt>
   <trkpt lat="32.7610886" lon="35.2041484">
    <ele>166.5</ele>
    <time>2013-02-10T19:01:58Z</time>
   </trkpt>
   <trkpt lat="32.7611149" lon="35.2040877">
    <ele>165.3</ele>
    <time>2013-02-10T19:02:01Z</time>
   </trkpt>
   <trkpt lat="32.7611523" lon="35.2040246">
    <ele>163.7</ele>
    <time>2013-02-10T19:02:04Z</time>
   </trkpt>
   <trkpt lat="32.7611779" lon="35.2039727">
    <ele>162.5</ele>
    <time>2013-02-10T19:02:07Z</time>
   </trkpt>
   <trkpt lat="32.7612026" lon="35.2039365">
    <ele>161.5</ele>
    <time>2013-02-10T19:02:10Z</time>
   </trkpt>
   <trkpt lat="32.7612270" lon="35.2038971">
    <ele>160.5</ele>
    <time>2013-02-10T19:02:13Z</time>
   </trkpt>
   <trkpt lat="32.7612448" lon="35.2038478">
    <ele>159.4</ele>
    <time>2013-02-10T19:02:16Z</time>
   </trkpt>
   <trkpt lat="32.7612686" lon="35.2038110">
    <ele>158.9</ele>
    <time>2013-02-10T19:02:19Z</time>
   </trkpt>
   <trkpt lat="32.7613031" lon="35.2037718">
    <ele>158.6</ele>
    <time>2013-02-10T19:02:22Z</time>
   </trkpt>
   <trkpt lat="32.7613539" lon="35.2037243">
    <ele>158.3</ele>
    <time>2013-02-10T19:02:25Z</time>
   </trkpt>
   <trkpt lat="32.7614009" lon="35.2036845">
    <ele>158.1</ele>
    <time>2013-02-10T19:02:28Z</time>
   </trkpt>
   <trkpt lat="32.7614644" lon="35.2036343">
    <ele>157.8</ele>
    <time>2013-02-10T19:02:31Z</time>
   </trkpt>
   <trkpt lat="32.7615254" lon="35.2035963">
    <ele>157.5</ele>
    <time>2013-02-10T19:02:34Z</time>
   </trkpt>
   <trkpt lat="32.7615910" lon="35.2035444">
    <ele>157.0</ele>
    <time>2013-02-10T19:02:37Z</time>
   </trkpt>
   <trkpt lat="32.7616466" lon="35.2035308">
    <ele>157.0</ele>
    <time>2013-02-10T19:02:40Z</time>
   </trkpt>
   <trkpt lat="32.7617087" lon="35.2035056">
    <ele>156.8</ele>
    <time>2013-02-10T19:02:43Z</time>
   </trkpt>
   <trkpt lat="32.7617649" lon="35.2034911">
    <ele>156.8</ele>
    <time>2013-02-10T19:02:46Z</time>
   </trkpt>
   <trkpt lat="32.7618362" lon="35.2034871">
    <ele>156.9</ele>
    <time>2013-02-10T19:02:49Z</time>
   </trkpt>
   <trkpt lat="32.7619056" lon="35.2034695">
    <ele>156.8</ele>
    <time>2013-02-10T19:02:52Z</time>
   </trkpt>
   <trkpt lat="32.7619696" lon="35.2034527">
    <ele>156.6</ele>
    <time>2013-02-10T19:02:55Z</time>
   </trkpt>
   <trkpt lat="32.7620259" lon="35.2034400">
    <ele>156.5</ele>
    <time>2013-02-10T19:02:58Z</time>
   </trkpt>
   <trkpt lat="32.7621142" lon="35.2034468">
    <ele>156.9</ele>
    <time>2013-02-10T19:03:01Z</time>
   </trkpt>
   <trkpt lat="32.7622118" lon="35.2034452">
    <ele>157.0</ele>
    <time>2013-02-10T19:03:04Z</time>
   </trkpt>
   <trkpt lat="32.7623192" lon="35.2034460">
    <ele>157.1</ele>
    <time>2013-02-10T19:03:07Z</time>
   </trkpt>
   <trkpt lat="32.7623983" lon="35.2034833">
    <ele>157.9</ele>
    <time>2013-02-10T19:03:10Z</time>
   </trkpt>
   <trkpt lat="32.7624605" lon="35.2035381">
    <ele>159.0</ele>
    <time>2013-02-10T19:03:13Z</time>
   </trkpt>
   <trkpt lat="32.7625233" lon="35.2035924">
    <ele>160.1</ele>
    <time>2013-02-10T19:03:16Z</time>
   </trkpt>
   <trkpt lat="32.7625814" lon="35.2036407">
    <ele>161.0</ele>
    <time>2013-02-10T19:03:19Z</time>
   </trkpt>
   <trkpt lat="32.7626314" lon="35.2036827">
    <ele>161.8</ele>
    <time>2013-02-10T19:03:22Z</time>
   </trkpt>
   <trkpt lat="32.7626760" lon="35.2037283">
    <ele>162.6</ele>
    <time>2013-02-10T19:03:25Z</time>
   </trkpt>
   <trkpt lat="32.7627102" lon="35.2037884">
    <ele>164.0</ele>
    <time>2013-02-10T19:03:28Z</time>
   </trkpt>
   <trkpt lat="32.7627372" lon="35.2038609">
    <ele>165.8</ele>
    <time>2013-02-10T19:03:31Z</time>
   </trkpt>
   <trkpt lat="32.7627300" lon="35.2039177">
    <ele>167.3</ele>
    <time>2013-02-10T19:03:34Z</time>
   </trkpt>
   <trkpt lat="32.7627137" lon="35.2039436">
    <ele>167.9</ele>
    <time>2013-02-10T19:03:39Z</time>
   </trkpt>
   <trkpt lat="32.7626971" lon="35.2039713">
    <ele>168.6</ele>
    <time>2013-02-10T19:09:24Z</time>
   </trkpt>
   <trkpt lat="32.7626713" lon="35.2039963">
    <ele>169.2</ele>
    <time>2013-02-10T19:09:27Z</time>
   </trkpt>
   <trkpt lat="32.7626246" lon="35.2039754">
    <ele>168.7</ele>
    <time>2013-02-10T19:09:30Z</time>
   </trkpt>
   <trkpt lat="32.7625666" lon="35.2039319">
    <ele>167.5</ele>
    <time>2013-02-10T19:09:33Z</time>
   </trkpt>
   <trkpt lat="32.7625172" lon="35.2038853">
    <ele>166.3</ele>
    <time>2013-02-10T19:09:36Z</time>
   </trkpt>
   <trkpt lat="32.7624691" lon="35.2038427">
    <ele>165.3</ele>
    <time>2013-02-10T19:09:39Z</time>
   </trkpt>
   <trkpt lat="32.7624192" lon="35.2038107">
    <ele>164.5</ele>
    <time>2013-02-10T19:09:42Z</time>
   </trkpt>
   <trkpt lat="32.7623689" lon="35.2037865">
    <ele>163.9</ele>
    <time>2013-02-10T19:09:45Z</time>
   </trkpt>
   <trkpt lat="32.7623098" lon="35.2037745">
    <ele>163.6</ele>
    <time>2013-02-10T19:09:48Z</time>
   </trkpt>
   <trkpt lat="32.7622541" lon="35.2037813">
    <ele>163.7</ele>
    <time>2013-02-10T19:09:51Z</time>
   </trkpt>
   <trkpt lat="32.7621917" lon="35.2037770">
    <ele>163.6</ele>
    <time>2013-02-10T19:09:54Z</time>
   </trkpt>
   <trkpt lat="32.7621329" lon="35.2037775">
    <ele>163.6</ele>
    <time>2013-02-10T19:09:57Z</time>
   </trkpt>
   <trkpt lat="32.7620825" lon="35.2037931">
    <ele>164.0</ele>
    <time>2013-02-10T19:10:00Z</time>
   </trkpt>
   <trkpt lat="32.7620357" lon="35.2038152">
    <ele>164.2</ele>
    <time>2013-02-10T19:10:03Z</time>
   </trkpt>
   <trkpt lat="32.7619902" lon="35.2038415">
    <ele>164.4</ele>
    <time>2013-02-10T19:10:06Z</time>
   </trkpt>
   <trkpt lat="32.7619543" lon="35.2038784">
    <ele>165.0</ele>
    <time>2013-02-10T19:10:09Z</time>
   </trkpt>
   <trkpt lat="32.7619187" lon="35.2039158">
    <ele>165.5</ele>
    <time>2013-02-10T19:10:12Z</time>
   </trkpt>
   <trkpt lat="32.7618689" lon="35.2039715">
    <ele>166.2</ele>
    <time>2013-02-10T19:10:15Z</time>
   </trkpt>
   <trkpt lat="32.7618398" lon="35.2040209">
    <ele>167.0</ele>
    <time>2013-02-10T19:10:18Z</time>
   </trkpt>
   <trkpt lat="32.7618053" lon="35.2040738">
    <ele>167.7</ele>
    <time>2013-02-10T19:10:21Z</time>
   </trkpt>
   <trkpt lat="32.7617788" lon="35.2041225">
    <ele>168.4</ele>
    <time>2013-02-10T19:10:24Z</time>
   </trkpt>
   <trkpt lat="32.7617470" lon="35.2041740">
    <ele>169.0</ele>
    <time>2013-02-10T19:10:27Z</time>
   </trkpt>
   <trkpt lat="32.7617248" lon="35.2042255">
    <ele>169.7</ele>
    <time>2013-02-10T19:10:30Z</time>
   </trkpt>
   <trkpt lat="32.7617204" lon="35.2042832">
    <ele>170.7</ele>
    <time>2013-02-10T19:10:33Z</time>
   </trkpt>
   <trkpt lat="32.7617013" lon="35.2043324">
    <ele>171.4</ele>
    <time>2013-02-10T19:10:36Z</time>
   </trkpt>
   <trkpt lat="32.7616910" lon="35.2043830">
    <ele>172.2</ele>
    <time>2013-02-10T19:10:39Z</time>
   </trkpt>
   <trkpt lat="32.7616809" lon="35.2044334">
    <ele>173.0</ele>
    <time>2013-02-10T19:10:42Z</time>
   </trkpt>
   <trkpt lat="32.7617056" lon="35.2044881">
    <ele>174.4</ele>
    <time>2013-02-10T19:10:45Z</time>
   </trkpt>
   <trkpt lat="32.7617468" lon="35.2045187">
    <ele>175.5</ele>
    <time>2013-02-10T19:10:48Z</time>
   </trkpt>
   <trkpt lat="32.7617861" lon="35.2045346">
    <ele>176.4</ele>
    <time>2013-02-10T19:10:51Z</time>
   </trkpt>
   <trkpt lat="32.7618230" lon="35.2045324">
    <ele>176.9</ele>
    <time>2013-02-10T19:10:54Z</time>
   </trkpt>
   <trkpt lat="32.7618598" lon="35.2045310">
    <ele>177.5</ele>
    <time>2013-02-10T19:10:58Z</time>
   </trkpt>
   <trkpt lat="32.7618904" lon="35.2045327">
    <ele>177.9</ele>
    <time>2013-02-10T19:11:01Z</time>
   </trkpt>
   <trkpt lat="32.7619208" lon="35.2045362">
    <ele>178.5</ele>
    <time>2013-02-10T19:11:04Z</time>
   </trkpt>
   <trkpt lat="32.7619513" lon="35.2045422">
    <ele>179.1</ele>
    <time>2013-02-10T19:11:07Z</time>
   </trkpt>
   <trkpt lat="32.7619824" lon="35.2045448">
    <ele>179.6</ele>
    <time>2013-02-10T19:11:10Z</time>
   </trkpt>
   <trkpt lat="32.7620099" lon="35.2045698">
    <ele>180.6</ele>
    <time>2013-02-10T19:11:14Z</time>
   </trkpt>
   <trkpt lat="32.7620374" lon="35.2046035">
    <ele>181.5</ele>
    <time>2013-02-10T19:11:17Z</time>
   </trkpt>
   <trkpt lat="32.7620747" lon="35.2046366">
    <ele>182.3</ele>
    <time>2013-02-10T19:11:20Z</time>
   </trkpt>
   <trkpt lat="32.7621126" lon="35.2046598">
    <ele>182.8</ele>
    <time>2013-02-10T19:11:23Z</time>
   </trkpt>
   <trkpt lat="32.7621462" lon="35.2047040">
    <ele>183.3</ele>
    <time>2013-02-10T19:11:26Z</time>
   </trkpt>
   <trkpt lat="32.7621740" lon="35.2047478">
    <ele>183.8</ele>
    <time>2013-02-10T19:11:29Z</time>
   </trkpt>
   <trkpt lat="32.7622083" lon="35.2047863">
    <ele>184.2</ele>
    <time>2013-02-10T19:11:32Z</time>
   </trkpt>
   <trkpt lat="32.7622515" lon="35.2048166">
    <ele>184.7</ele>
    <time>2013-02-10T19:11:35Z</time>
   </trkpt>
   <trkpt lat="32.7623005" lon="35.2048520">
    <ele>185.2</ele>
    <time>2013-02-10T19:11:38Z</time>
   </trkpt>
   <trkpt lat="32.7623351" lon="35.2048893">
    <ele>185.7</ele>
    <time>2013-02-10T19:11:41Z</time>
   </trkpt>
   <trkpt lat="32.7623594" lon="35.2049301">
    <ele>186.2</ele>
    <time>2013-02-10T19:11:44Z</time>
   </trkpt>
   <trkpt lat="32.7623739" lon="35.2049853">
    <ele>186.8</ele>
    <time>2013-02-10T19:11:47Z</time>
   </trkpt>
   <trkpt lat="32.7623955" lon="35.2050397">
    <ele>187.4</ele>
    <time>2013-02-10T19:11:50Z</time>
   </trkpt>
   <trkpt lat="32.7624195" lon="35.2050917">
    <ele>188.0</ele>
    <time>2013-02-10T19:11:53Z</time>
   </trkpt>
   <trkpt lat="32.7624386" lon="35.2051420">
    <ele>188.5</ele>
    <time>2013-02-10T19:11:56Z</time>
   </trkpt>
   <trkpt lat="32.7624577" lon="35.2051739">
    <ele>188.9</ele>
    <time>2013-02-10T19:11:59Z</time>
   </trkpt>
   <trkpt lat="32.7624771" lon="35.2052320">
    <ele>189.6</ele>
    <time>2013-02-10T19:12:02Z</time>
   </trkpt>
   <trkpt lat="32.7624908" lon="35.2053081">
    <ele>190.4</ele>
    <time>2013-02-10T19:12:05Z</time>
   </trkpt>
   <trkpt lat="32.7625208" lon="35.2053807">
    <ele>191.3</ele>
    <time>2013-02-10T19:12:08Z</time>
   </trkpt>
   <trkpt lat="32.7625530" lon="35.2054574">
    <ele>191.9</ele>
    <time>2013-02-10T19:12:11Z</time>
   </trkpt>
   <trkpt lat="32.7625789" lon="35.2055737">
    <ele>192.3</ele>
    <time>2013-02-10T19:12:14Z</time>
   </trkpt>
   <trkpt lat="32.7626054" lon="35.2056689">
    <ele>192.7</ele>
    <time>2013-02-10T19:12:17Z</time>
   </trkpt>
   <trkpt lat="32.7626337" lon="35.2057454">
    <ele>193.1</ele>
    <time>2013-02-10T19:12:20Z</time>
   </trkpt>
   <trkpt lat="32.7626672" lon="35.2058173">
    <ele>193.6</ele>
    <time>2013-02-10T19:12:23Z</time>
   </trkpt>
   <trkpt lat="32.7626983" lon="35.2058865">
    <ele>194.1</ele>
    <time>2013-02-10T19:12:26Z</time>
   </trkpt>
   <trkpt lat="32.7627193" lon="35.2059501">
    <ele>194.5</ele>
    <time>2013-02-10T19:12:29Z</time>
   </trkpt>
   <trkpt lat="32.7627202" lon="35.2060134">
    <ele>194.7</ele>
    <time>2013-02-10T19:12:32Z</time>
   </trkpt>
   <trkpt lat="32.7627254" lon="35.2060795">
    <ele>194.9</ele>
    <time>2013-02-10T19:12:35Z</time>
   </trkpt>
   <trkpt lat="32.7627528" lon="35.2061364">
    <ele>195.5</ele>
    <time>2013-02-10T19:12:38Z</time>
   </trkpt>
   <trkpt lat="32.7627792" lon="35.2061891">
    <ele>196.0</ele>
    <time>2013-02-10T19:12:41Z</time>
   </trkpt>
   <trkpt lat="32.7628013" lon="35.2062320">
    <ele>196.4</ele>
    <time>2013-02-10T19:12:44Z</time>
   </trkpt>
   <trkpt lat="32.7628120" lon="35.2062770">
    <ele>196.8</ele>
    <time>2013-02-10T19:12:47Z</time>
   </trkpt>
   <trkpt lat="32.7627964" lon="35.2063464">
    <ele>197.0</ele>
    <time>2013-02-10T19:12:50Z</time>
   </trkpt>
   <trkpt lat="32.7627989" lon="35.2064096">
    <ele>197.4</ele>
    <time>2013-02-10T19:12:53Z</time>
   </trkpt>
   <trkpt lat="32.7628302" lon="35.2064469">
    <ele>198.0</ele>
    <time>2013-02-10T19:12:56Z</time>
   </trkpt>
   <trkpt lat="32.7628503" lon="35.2064998">
    <ele>198.6</ele>
    <time>2013-02-10T19:12:59Z</time>
   </trkpt>
   <trkpt lat="32.7628765" lon="35.2065661">
    <ele>199.4</ele>
    <time>2013-02-10T19:13:02Z</time>
   </trkpt>
   <trkpt lat="32.7629174" lon="35.2066435">
    <ele>200.4</ele>
    <time>2013-02-10T19:13:05Z</time>
   </trkpt>
   <trkpt lat="32.7629615" lon="35.2066985">
    <ele>200.4</ele>
    <time>2013-02-10T19:13:08Z</time>
   </trkpt>
   <trkpt lat="32.7629989" lon="35.2067525">
    <ele>200.5</ele>
    <time>2013-02-10T19:13:11Z</time>
   </trkpt>
   <trkpt lat="32.7630395" lon="35.2068140">
    <ele>200.7</ele>
    <time>2013-02-10T19:13:14Z</time>
   </trkpt>
   <trkpt lat="32.7630753" lon="35.2068661">
    <ele>200.9</ele>
    <time>2013-02-10T19:13:17Z</time>
   </trkpt>
   <trkpt lat="32.7631080" lon="35.2069269">
    <ele>201.3</ele>
    <time>2013-02-10T19:13:20Z</time>
   </trkpt>
   <trkpt lat="32.7631460" lon="35.2069887">
    <ele>201.6</ele>
    <time>2013-02-10T19:13:23Z</time>
   </trkpt>
   <trkpt lat="32.7631781" lon="35.2070294">
    <ele>201.9</ele>
    <time>2013-02-10T19:13:26Z</time>
   </trkpt>
   <trkpt lat="32.7632095" lon="35.2070664">
    <ele>202.1</ele>
    <time>2013-02-10T19:13:29Z</time>
   </trkpt>
   <trkpt lat="32.7632498" lon="35.2070963">
    <ele>202.3</ele>
    <time>2013-02-10T19:13:32Z</time>
   </trkpt>
   <trkpt lat="32.7632788" lon="35.2071501">
    <ele>202.9</ele>
    <time>2013-02-10T19:13:35Z</time>
   </trkpt>
   <trkpt lat="32.7633117" lon="35.2071952">
    <ele>203.4</ele>
    <time>2013-02-10T19:13:38Z</time>
   </trkpt>
   <trkpt lat="32.7633596" lon="35.2072588">
    <ele>204.1</ele>
    <time>2013-02-10T19:13:41Z</time>
   </trkpt>
   <trkpt lat="32.7633940" lon="35.2073145">
    <ele>204.8</ele>
    <time>2013-02-10T19:13:44Z</time>
   </trkpt>
   <trkpt lat="32.7634172" lon="35.2073609">
    <ele>205.4</ele>
    <time>2013-02-10T19:13:47Z</time>
   </trkpt>
   <trkpt lat="32.7634389" lon="35.2074126">
    <ele>206.1</ele>
    <time>2013-02-10T19:13:50Z</time>
   </trkpt>
   <trkpt lat="32.7634368" lon="35.2074887">
    <ele>207.1</ele>
    <time>2013-02-10T19:13:53Z</time>
   </trkpt>
   <trkpt lat="32.7634023" lon="35.2075506">
    <ele>207.8</ele>
    <time>2013-02-10T19:13:56Z</time>
   </trkpt>
   <trkpt lat="32.7633607" lon="35.2075804">
    <ele>208.1</ele>
    <time>2013-02-10T19:13:59Z</time>
   </trkpt>
   <trkpt lat="32.7633223" lon="35.2076111">
    <ele>208.3</ele>
    <time>2013-02-10T19:14:02Z</time>
   </trkpt>
   <trkpt lat="32.7632959" lon="35.2076450">
    <ele>208.6</ele>
    <time>2013-02-10T19:14:05Z</time>
   </trkpt>
   <trkpt lat="32.7632767" lon="35.2076845">
    <ele>209.0</ele>
    <time>2013-02-10T19:14:08Z</time>
   </trkpt>
   <trkpt lat="32.7632464" lon="35.2077064">
    <ele>209.1</ele>
    <time>2013-02-10T19:14:11Z</time>
   </trkpt>
   <trkpt lat="32.7632174" lon="35.2077135">
    <ele>209.0</ele>
    <time>2013-02-10T19:14:14Z</time>
   </trkpt>
   <trkpt lat="32.7631838" lon="35.2077265">
    <ele>209.0</ele>
    <time>2013-02-10T19:14:17Z</time>
   </trkpt>
   <trkpt lat="32.7631497" lon="35.2077492">
    <ele>209.0</ele>
    <time>2013-02-10T19:14:20Z</time>
   </trkpt>
   <trkpt lat="32.7631331" lon="35.2077865">
    <ele>209.3</ele>
    <time>2013-02-10T19:14:23Z</time>
   </trkpt>
   <trkpt lat="32.7631214" lon="35.2078338">
    <ele>209.7</ele>
    <time>2013-02-10T19:14:26Z</time>
   </trkpt>
   <trkpt lat="32.7631003" lon="35.2078768">
    <ele>210.0</ele>
    <time>2013-02-10T19:14:29Z</time>
   </trkpt>
   <trkpt lat="32.7630838" lon="35.2079122">
    <ele>210.2</ele>
    <time>2013-02-10T19:14:32Z</time>
   </trkpt>
   <trkpt lat="32.7630537" lon="35.2079409">
    <ele>210.3</ele>
    <time>2013-02-10T19:14:35Z</time>
   </trkpt>
   <trkpt lat="32.7630223" lon="35.2079858">
    <ele>210.7</ele>
    <time>2013-02-10T19:14:38Z</time>
   </trkpt>
   <trkpt lat="32.7629894" lon="35.2080270">
    <ele>211.0</ele>
    <time>2013-02-10T19:14:41Z</time>
   </trkpt>
   <trkpt lat="32.7629697" lon="35.2080626">
    <ele>211.3</ele>
    <time>2013-02-10T19:14:44Z</time>
   </trkpt>
   <trkpt lat="32.7629769" lon="35.2081050">
    <ele>212.0</ele>
    <time>2013-02-10T19:14:47Z</time>
   </trkpt>
   <trkpt lat="32.7629880" lon="35.2081530">
    <ele>212.7</ele>
    <time>2013-02-10T19:14:50Z</time>
   </trkpt>
   <trkpt lat="32.7630131" lon="35.2081832">
    <ele>213.3</ele>
    <time>2013-02-10T19:14:53Z</time>
   </trkpt>
   <trkpt lat="32.7630368" lon="35.2082100">
    <ele>213.9</ele>
    <time>2013-02-10T19:14:56Z</time>
   </trkpt>
   <trkpt lat="32.7630632" lon="35.2082457">
    <ele>214.6</ele>
    <time>2013-02-10T19:15:00Z</time>
   </trkpt>
   <trkpt lat="32.7630912" lon="35.2082885">
    <ele>215.4</ele>
    <time>2013-02-10T19:15:03Z</time>
   </trkpt>
   <trkpt lat="32.7631205" lon="35.2083206">
    <ele>216.2</ele>
    <time>2013-02-10T19:15:06Z</time>
   </trkpt>
   <trkpt lat="32.7631358" lon="35.2083594">
    <ele>216.8</ele>
    <time>2013-02-10T19:15:09Z</time>
   </trkpt>
   <trkpt lat="32.7631608" lon="35.2083823">
    <ele>217.4</ele>
    <time>2013-02-10T19:15:12Z</time>
   </trkpt>
   <trkpt lat="32.7631743" lon="35.2084138">
    <ele>218.0</ele>
    <time>2013-02-10T19:15:15Z</time>
   </trkpt>
   <trkpt lat="32.7631682" lon="35.2084540">
    <ele>218.5</ele>
    <time>2013-02-10T19:15:19Z</time>
   </trkpt>
   <trkpt lat="32.7631638" lon="35.2084923">
    <ele>219.0</ele>
    <time>2013-02-10T19:15:22Z</time>
   </trkpt>
   <trkpt lat="32.7631547" lon="35.2085289">
    <ele>219.4</ele>
    <time>2013-02-10T19:15:25Z</time>
   </trkpt>
   <trkpt lat="32.7631441" lon="35.2085676">
    <ele>219.9</ele>
    <time>2013-02-10T19:15:28Z</time>
   </trkpt>
   <trkpt lat="32.7631357" lon="35.2086040">
    <ele>220.3</ele>
    <time>2013-02-10T19:15:31Z</time>
   </trkpt>
   <trkpt lat="32.7631322" lon="35.2086451">
    <ele>220.8</ele>
    <time>2013-02-10T19:15:35Z</time>
   </trkpt>
   <trkpt lat="32.7631559" lon="35.2086639">
    <ele>221.4</ele>
    <time>2013-02-10T19:15:38Z</time>
   </trkpt>
   <trkpt lat="32.7631950" lon="35.2086842">
    <ele>222.1</ele>
    <time>2013-02-10T19:15:41Z</time>
   </trkpt>
   <trkpt lat="32.7632262" lon="35.2087221">
    <ele>222.9</ele>
    <time>2013-02-10T19:15:44Z</time>
   </trkpt>
   <trkpt lat="32.7632439" lon="35.2087475">
    <ele>223.5</ele>
    <time>2013-02-10T19:15:47Z</time>
   </trkpt>
   <trkpt lat="32.7632662" lon="35.2087698">
    <ele>224.0</ele>
    <time>2013-02-10T19:22:25Z</time>
   </trkpt>
   <trkpt lat="32.7632909" lon="35.2088037">
    <ele>224.7</ele>
    <time>2013-02-10T19:22:28Z</time>
   </trkpt>
   <trkpt lat="32.7633164" lon="35.2088206">
    <ele>225.1</ele>
    <time>2013-02-10T19:22:31Z</time>
   </trkpt>
   <trkpt lat="32.7633489" lon="35.2088251">
    <ele>225.5</ele>
    <time>2013-02-10T19:22:34Z</time>
   </trkpt>
   <trkpt lat="32.7633897" lon="35.2088246">
    <ele>226.0</ele>
    <time>2013-02-10T19:22:37Z</time>
   </trkpt>
   <trkpt lat="32.7634353" lon="35.2088230">
    <ele>226.4</ele>
    <time>2013-02-10T19:22:40Z</time>
   </trkpt>
   <trkpt lat="32.7634794" lon="35.2088277">
    <ele>227.0</ele>
    <time>2013-02-10T19:22:43Z</time>
   </trkpt>
   <trkpt lat="32.7635263" lon="35.2088198">
    <ele>227.4</ele>
    <time>2013-02-10T19:22:46Z</time>
   </trkpt>
   <trkpt lat="32.7635690" lon="35.2088141">
    <ele>227.8</ele>
    <time>2013-02-10T19:22:49Z</time>
   </trkpt>
   <trkpt lat="32.7636113" lon="35.2088104">
    <ele>228.2</ele>
    <time>2013-02-10T19:22:52Z</time>
   </trkpt>
   <trkpt lat="32.7636620" lon="35.2088178">
    <ele>228.9</ele>
    <time>2013-02-10T19:22:55Z</time>
   </trkpt>
   <trkpt lat="32.7637243" lon="35.2088232">
    <ele>229.6</ele>
    <time>2013-02-10T19:22:58Z</time>
   </trkpt>
   <trkpt lat="32.7638003" lon="35.2088270">
    <ele>229.4</ele>
    <time>2013-02-10T19:23:01Z</time>
   </trkpt>
   <trkpt lat="32.7638708" lon="35.2088618">
    <ele>229.0</ele>
    <time>2013-02-10T19:23:04Z</time>
   </trkpt>
   <trkpt lat="32.7639373" lon="35.2089072">
    <ele>229.0</ele>
    <time>2013-02-10T19:23:07Z</time>
   </trkpt>
   <trkpt lat="32.7639986" lon="35.2089528">
    <ele>229.0</ele>
    <time>2013-02-10T19:23:10Z</time>
   </trkpt>
   <trkpt lat="32.7640504" lon="35.2089916">
    <ele>229.1</ele>
    <time>2013-02-10T19:23:13Z</time>
   </trkpt>
   <trkpt lat="32.7640898" lon="35.2090330">
    <ele>229.4</ele>
    <time>2013-02-10T19:23:16Z</time>
   </trkpt>
   <trkpt lat="32.7641263" lon="35.2090802">
    <ele>229.9</ele>
    <time>2013-02-10T19:23:19Z</time>
   </trkpt>
   <trkpt lat="32.7641582" lon="35.2091272">
    <ele>230.4</ele>
    <time>2013-02-10T19:23:22Z</time>
   </trkpt>
   <trkpt lat="32.7641900" lon="35.2091686">
    <ele>230.9</ele>
    <time>2013-02-10T19:23:25Z</time>
   </trkpt>
   <trkpt lat="32.7642150" lon="35.2092039">
    <ele>231.3</ele>
    <time>2013-02-10T19:23:28Z</time>
   </trkpt>
   <trkpt lat="32.7642340" lon="35.2092544">
    <ele>232.1</ele>
    <time>2013-02-10T19:23:31Z</time>
   </trkpt>
   <trkpt lat="32.7642406" lon="35.2093243">
    <ele>233.2</ele>
    <time>2013-02-10T19:23:34Z</time>
   </trkpt>
   <trkpt lat="32.7642439" lon="35.2093942">
    <ele>234.5</ele>
    <time>2013-02-10T19:23:37Z</time>
   </trkpt>
   <trkpt lat="32.7642370" lon="35.2094605">
    <ele>235.7</ele>
    <time>2013-02-10T19:23:40Z</time>
   </trkpt>
   <trkpt lat="32.7642354" lon="35.2095305">
    <ele>236.9</ele>
    <time>2013-02-10T19:23:43Z</time>
   </trkpt>
   <trkpt lat="32.7642579" lon="35.2095936">
    <ele>237.9</ele>
    <time>2013-02-10T19:23:46Z</time>
   </trkpt>
   <trkpt lat="32.7642908" lon="35.2096437">
    <ele>238.2</ele>
    <time>2013-02-10T19:23:49Z</time>
   </trkpt>
   <trkpt lat="32.7643415" lon="35.2096889">
    <ele>238.5</ele>
    <time>2013-02-10T19:23:52Z</time>
   </trkpt>
   <trkpt lat="32.7644070" lon="35.2097534">
    <ele>239.0</ele>
    <time>2013-02-10T19:23:55Z</time>
   </trkpt>
   <trkpt lat="32.7644637" lon="35.2098035">
    <ele>239.3</ele>
    <time>2013-02-10T19:23:58Z</time>
   </trkpt>
   <trkpt lat="32.7645226" lon="35.2098425">
    <ele>239.6</ele>
    <time>2013-02-10T19:24:01Z</time>
   </trkpt>
   <trkpt lat="32.7645704" lon="35.2098833">
    <ele>239.9</ele>
    <time>2013-02-10T19:24:04Z</time>
   </trkpt>
   <trkpt lat="32.7646105" lon="35.2099296">
    <ele>239.8</ele>
    <time>2013-02-10T19:24:07Z</time>
   </trkpt>
   <trkpt lat="32.7646465" lon="35.2099749">
    <ele>239.7</ele>
    <time>2013-02-10T19:24:10Z</time>
   </trkpt>
   <trkpt lat="32.7646899" lon="35.2100162">
    <ele>239.3</ele>
    <time>2013-02-10T19:24:13Z</time>
   </trkpt>
   <trkpt lat="32.7647320" lon="35.2100720">
    <ele>239.2</ele>
    <time>2013-02-10T19:24:16Z</time>
   </trkpt>
   <trkpt lat="32.7647699" lon="35.2101428">
    <ele>239.2</ele>
    <time>2013-02-10T19:24:19Z</time>
   </trkpt>
   <trkpt lat="32.7648012" lon="35.2102151">
    <ele>239.5</ele>
    <time>2013-02-10T19:24:22Z</time>
   </trkpt>
   <trkpt lat="32.7648330" lon="35.2102807">
    <ele>239.7</ele>
    <time>2013-02-10T19:24:25Z</time>
   </trkpt>
   <trkpt lat="32.7648624" lon="35.2103434">
    <ele>239.9</ele>
    <time>2013-02-10T19:24:28Z</time>
   </trkpt>
   <trkpt lat="32.7648937" lon="35.2104178">
    <ele>240.2</ele>
    <time>2013-02-10T19:24:31Z</time>
   </trkpt>
   <trkpt lat="32.7649394" lon="35.2105282">
    <ele>239.8</ele>
    <time>2013-02-10T19:24:34Z</time>
   </trkpt>
   <trkpt lat="32.7649672" lon="35.2106278">
    <ele>239.7</ele>
    <time>2013-02-10T19:24:37Z</time>
   </trkpt>
   <trkpt lat="32.7650003" lon="35.2107223">
    <ele>239.6</ele>
    <time>2013-02-10T19:24:40Z</time>
   </trkpt>
   <trkpt lat="32.7650266" lon="35.2108385">
    <ele>239.7</ele>
    <time>2013-02-10T19:24:43Z</time>
   </trkpt>
   <trkpt lat="32.7650444" lon="35.2109500">
    <ele>239.9</ele>
    <time>2013-02-10T19:24:46Z</time>
   </trkpt>
   <trkpt lat="32.7650789" lon="35.2110736">
    <ele>240.1</ele>
    <time>2013-02-10T19:24:49Z</time>
   </trkpt>
   <trkpt lat="32.7651121" lon="35.2112048">
    <ele>240.4</ele>
    <time>2013-02-10T19:24:52Z</time>
   </trkpt>
   <trkpt lat="32.7651490" lon="35.2113626">
    <ele>240.8</ele>
    <time>2013-02-10T19:24:55Z</time>
   </trkpt>
   <trkpt lat="32.7651896" lon="35.2115270">
    <ele>241.4</ele>
    <time>2013-02-10T19:24:58Z</time>
   </trkpt>
   <trkpt lat="32.7652363" lon="35.2116644">
    <ele>241.9</ele>
    <time>2013-02-10T19:25:01Z</time>
   </trkpt>
   <trkpt lat="32.7653180" lon="35.2118034">
    <ele>242.3</ele>
    <time>2013-02-10T19:25:04Z</time>
   </trkpt>
   <trkpt lat="32.7654139" lon="35.2119941">
    <ele>243.4</ele>
    <time>2013-02-10T19:25:07Z</time>
   </trkpt>
   <trkpt lat="32.7654536" lon="35.2121592">
    <ele>243.2</ele>
    <time>2013-02-10T19:25:10Z</time>
   </trkpt>
   <trkpt lat="32.7654653" lon="35.2122811">
    <ele>243.0</ele>
    <time>2013-02-10T19:25:13Z</time>
   </trkpt>
   <trkpt lat="32.7654671" lon="35.2123794">
    <ele>243.0</ele>
    <time>2013-02-10T19:25:16Z</time>
   </trkpt>
   <trkpt lat="32.7654587" lon="35.2124781">
    <ele>243.3</ele>
    <time>2013-02-10T19:25:19Z</time>
   </trkpt>
   <trkpt lat="32.7654472" lon="35.2125865">
    <ele>243.5</ele>
    <time>2013-02-10T19:25:22Z</time>
   </trkpt>
   <trkpt lat="32.7654549" lon="35.2126928">
    <ele>243.4</ele>
    <time>2013-02-10T19:25:25Z</time>
   </trkpt>
   <trkpt lat="32.7654611" lon="35.2127927">
    <ele>243.4</ele>
    <time>2013-02-10T19:25:28Z</time>
   </trkpt>
   <trkpt lat="32.7654606" lon="35.2129013">
    <ele>243.5</ele>
    <time>2013-02-10T19:25:31Z</time>
   </trkpt>
   <trkpt lat="32.7654225" lon="35.2130063">
    <ele>243.9</ele>
    <time>2013-02-10T19:25:34Z</time>
   </trkpt>
   <trkpt lat="32.7654101" lon="35.2130799">
    <ele>244.0</ele>
    <time>2013-02-10T19:25:37Z</time>
   </trkpt>
   <trkpt lat="32.7653884" lon="35.2131736">
    <ele>244.1</ele>
    <time>2013-02-10T19:25:40Z</time>
   </trkpt>
   <trkpt lat="32.7653693" lon="35.2132657">
    <ele>244.2</ele>
    <time>2013-02-10T19:25:43Z</time>
   </trkpt>
   <trkpt lat="32.7653673" lon="35.2133591">
    <ele>244.2</ele>
    <time>2013-02-10T19:25:46Z</time>
   </trkpt>
   <trkpt lat="32.7653501" lon="35.2134612">
    <ele>244.3</ele>
    <time>2013-02-10T19:25:49Z</time>
   </trkpt>
   <trkpt lat="32.7653390" lon="35.2135737">
    <ele>244.4</ele>
    <time>2013-02-10T19:25:52Z</time>
   </trkpt>
   <trkpt lat="32.7653355" lon="35.2136766">
    <ele>244.4</ele>
    <time>2013-02-10T19:25:55Z</time>
   </trkpt>
   <trkpt lat="32.7653136" lon="35.2137881">
    <ele>244.5</ele>
    <time>2013-02-10T19:25:58Z</time>
   </trkpt>
   <trkpt lat="32.7652785" lon="35.2138887">
    <ele>244.8</ele>
    <time>2013-02-10T19:26:01Z</time>
   </trkpt>
   <trkpt lat="32.7652700" lon="35.2139892">
    <ele>244.9</ele>
    <time>2013-02-10T19:26:04Z</time>
   </trkpt>
   <trkpt lat="32.7652465" lon="35.2140919">
    <ele>245.1</ele>
    <time>2013-02-10T19:26:07Z</time>
   </trkpt>
   <trkpt lat="32.7652177" lon="35.2141870">
    <ele>245.2</ele>
    <time>2013-02-10T19:26:10Z</time>
   </trkpt>
   <trkpt lat="32.7652006" lon="35.2142876">
    <ele>245.3</ele>
    <time>2013-02-10T19:26:13Z</time>
   </trkpt>
   <trkpt lat="32.7651538" lon="35.2143974">
    <ele>245.5</ele>
    <time>2013-02-10T19:26:16Z</time>
   </trkpt>
   <trkpt lat="32.7650993" lon="35.2145081">
    <ele>245.7</ele>
    <time>2013-02-10T19:26:19Z</time>
   </trkpt>
   <trkpt lat="32.7650765" lon="35.2146199">
    <ele>245.7</ele>
    <time>2013-02-10T19:26:22Z</time>
   </trkpt>
   <trkpt lat="32.7650601" lon="35.2147539">
    <ele>245.2</ele>
    <time>2013-02-10T19:26:25Z</time>
   </trkpt>
   <trkpt lat="32.7650174" lon="35.2148626">
    <ele>244.8</ele>
    <time>2013-02-10T19:26:28Z</time>
   </trkpt>
   <trkpt lat="32.7649687" lon="35.2149608">
    <ele>244.5</ele>
    <time>2013-02-10T19:26:31Z</time>
   </trkpt>
   <trkpt lat="32.7648962" lon="35.2150581">
    <ele>244.2</ele>
    <time>2013-02-10T19:26:34Z</time>
   </trkpt>
   <trkpt lat="32.7648113" lon="35.2151591">
    <ele>243.9</ele>
    <time>2013-02-10T19:26:37Z</time>
   </trkpt>
   <trkpt lat="32.7647319" lon="35.2152344">
    <ele>243.7</ele>
    <time>2013-02-10T19:26:40Z</time>
   </trkpt>
   <trkpt lat="32.7646653" lon="35.2153281">
    <ele>243.3</ele>
    <time>2013-02-10T19:26:43Z</time>
   </trkpt>
   <trkpt lat="32.7646010" lon="35.2154256">
    <ele>243.0</ele>
    <time>2013-02-10T19:26:46Z</time>
   </trkpt>
   <trkpt lat="32.7645338" lon="35.2155270">
    <ele>242.7</ele>
    <time>2013-02-10T19:26:49Z</time>
   </trkpt>
   <trkpt lat="32.7644611" lon="35.2156293">
    <ele>242.2</ele>
    <time>2013-02-10T19:26:52Z</time>
   </trkpt>
   <trkpt lat="32.7643881" lon="35.2157320">
    <ele>241.7</ele>
    <time>2013-02-10T19:26:55Z</time>
   </trkpt>
   <trkpt lat="32.7643072" lon="35.2158322">
    <ele>241.2</ele>
    <time>2013-02-10T19:26:58Z</time>
   </trkpt>
   <trkpt lat="32.7642132" lon="35.2159413">
    <ele>240.6</ele>
    <time>2013-02-10T19:27:01Z</time>
   </trkpt>
   <trkpt lat="32.7641459" lon="35.2159940">
    <ele>240.2</ele>
    <time>2013-02-10T19:27:04Z</time>
   </trkpt>
   <trkpt lat="32.7640899" lon="35.2161381">
    <ele>240.0</ele>
    <time>2013-02-10T19:27:28Z</time>
   </trkpt>
   <trkpt lat="32.7640320" lon="35.2162268">
    <ele>239.7</ele>
    <time>2013-02-10T19:27:31Z</time>
   </trkpt>
   <trkpt lat="32.7639355" lon="35.2162979">
    <ele>238.9</ele>
    <time>2013-02-10T19:27:34Z</time>
   </trkpt>
   <trkpt lat="32.7638145" lon="35.2164053">
    <ele>237.6</ele>
    <time>2013-02-10T19:27:37Z</time>
   </trkpt>
   <trkpt lat="32.7637305" lon="35.2165583">
    <ele>236.2</ele>
    <time>2013-02-10T19:27:40Z</time>
   </trkpt>
   <trkpt lat="32.7636568" lon="35.2167304">
    <ele>234.3</ele>
    <time>2013-02-10T19:27:43Z</time>
   </trkpt>
   <trkpt lat="32.7636086" lon="35.2169170">
    <ele>232.7</ele>
    <time>2013-02-10T19:27:46Z</time>
   </trkpt>
   <trkpt lat="32.7635947" lon="35.2170890">
    <ele>231.8</ele>
    <time>2013-02-10T19:27:49Z</time>
   </trkpt>
   <trkpt lat="32.7636031" lon="35.2172268">
    <ele>232.1</ele>
    <time>2013-02-10T19:27:52Z</time>
   </trkpt>
   <trkpt lat="32.7635998" lon="35.2173548">
    <ele>232.3</ele>
    <time>2013-02-10T19:27:55Z</time>
   </trkpt>
   <trkpt lat="32.7635672" lon="35.2174840">
    <ele>231.9</ele>
    <time>2013-02-10T19:27:58Z</time>
   </trkpt>
   <trkpt lat="32.7635399" lon="35.2175896">
    <ele>231.6</ele>
    <time>2013-02-10T19:28:01Z</time>
   </trkpt>
   <trkpt lat="32.7635437" lon="35.2176994">
    <ele>231.8</ele>
    <time>2013-02-10T19:28:04Z</time>
   </trkpt>
   <trkpt lat="32.7635101" lon="35.2178074">
    <ele>231.3</ele>
    <time>2013-02-10T19:28:07Z</time>
   </trkpt>
   <trkpt lat="32.7634764" lon="35.2179226">
    <ele>230.8</ele>
    <time>2013-02-10T19:28:10Z</time>
   </trkpt>
   <trkpt lat="32.7634659" lon="35.2180326">
    <ele>231.2</ele>
    <time>2013-02-10T19:28:13Z</time>
   </trkpt>
   <trkpt lat="32.7634783" lon="35.2181289">
    <ele>232.1</ele>
    <time>2013-02-10T19:28:16Z</time>
   </trkpt>
   <trkpt lat="32.7635014" lon="35.2182113">
    <ele>233.0</ele>
    <time>2013-02-10T19:28:19Z</time>
   </trkpt>
   <trkpt lat="32.7635199" lon="35.2182943">
    <ele>233.8</ele>
    <time>2013-02-10T19:28:22Z</time>
   </trkpt>
   <trkpt lat="32.7635398" lon="35.2183615">
    <ele>234.6</ele>
    <time>2013-02-10T19:28:25Z</time>
   </trkpt>
   <trkpt lat="32.7635708" lon="35.2184378">
    <ele>235.7</ele>
    <time>2013-02-10T19:28:28Z</time>
   </trkpt>
   <trkpt lat="32.7635993" lon="35.2185155">
    <ele>236.7</ele>
    <time>2013-02-10T19:28:31Z</time>
   </trkpt>
   <trkpt lat="32.7636158" lon="35.2186007">
    <ele>237.5</ele>
    <time>2013-02-10T19:28:34Z</time>
   </trkpt>
   <trkpt lat="32.7636194" lon="35.2186815">
    <ele>238.1</ele>
    <time>2013-02-10T19:28:37Z</time>
   </trkpt>
   <trkpt lat="32.7635998" lon="35.2188082">
    <ele>238.3</ele>
    <time>2013-02-10T19:28:40Z</time>
   </trkpt>
   <trkpt lat="32.7635982" lon="35.2189349">
    <ele>238.5</ele>
    <time>2013-02-10T19:28:43Z</time>
   </trkpt>
   <trkpt lat="32.7635998" lon="35.2190290">
    <ele>238.8</ele>
    <time>2013-02-10T19:28:46Z</time>
   </trkpt>
   <trkpt lat="32.7635973" lon="35.2191298">
    <ele>239.0</ele>
    <time>2013-02-10T19:29:48Z</time>
   </trkpt>
   <trkpt lat="32.7636186" lon="35.2191740">
    <ele>239.5</ele>
    <time>2013-02-10T19:29:51Z</time>
   </trkpt>
   <trkpt lat="32.7636831" lon="35.2192749">
    <ele>241.0</ele>
    <time>2013-02-10T19:29:55Z</time>
   </trkpt>
   <trkpt lat="32.7637421" lon="35.2194024">
    <ele>242.4</ele>
    <time>2013-02-10T19:29:58Z</time>
   </trkpt>
   <trkpt lat="32.7638093" lon="35.2195940">
    <ele>242.8</ele>
    <time>2013-02-10T19:30:01Z</time>
   </trkpt>
   <trkpt lat="32.7638664" lon="35.2198160">
    <ele>240.3</ele>
    <time>2013-02-10T19:30:04Z</time>
   </trkpt>
   <trkpt lat="32.7638562" lon="35.2200392">
    <ele>238.1</ele>
    <time>2013-02-10T19:30:07Z</time>
   </trkpt>
   <trkpt lat="32.7638324" lon="35.2202370">
    <ele>236.2</ele>
    <time>2013-02-10T19:30:10Z</time>
   </trkpt>
   <trkpt lat="32.7637484" lon="35.2204023">
    <ele>235.1</ele>
    <time>2013-02-10T19:30:13Z</time>
   </trkpt>
   <trkpt lat="32.7636340" lon="35.2204512">
    <ele>233.2</ele>
    <time>2013-02-10T19:30:16Z</time>
   </trkpt>
   <trkpt lat="32.7635943" lon="35.2205419">
    <ele>231.5</ele>
    <time>2013-02-10T19:30:19Z</time>
   </trkpt>
   <trkpt lat="32.7635607" lon="35.2206798">
    <ele>229.3</ele>
    <time>2013-02-10T19:30:22Z</time>
   </trkpt>
   <trkpt lat="32.7635680" lon="35.2208448">
    <ele>227.2</ele>
    <time>2013-02-10T19:30:25Z</time>
   </trkpt>
   <trkpt lat="32.7635720" lon="35.2209345">
    <ele>226.0</ele>
    <time>2013-02-10T19:30:28Z</time>
   </trkpt>
   <trkpt lat="32.7635849" lon="35.2210789">
    <ele>224.3</ele>
    <time>2013-02-10T19:30:31Z</time>
   </trkpt>
   <trkpt lat="32.7635435" lon="35.2212364">
    <ele>221.7</ele>
    <time>2013-02-10T19:30:34Z</time>
   </trkpt>
   <trkpt lat="32.7635761" lon="35.2214116">
    <ele>219.1</ele>
    <time>2013-02-10T19:30:37Z</time>
   </trkpt>
   <trkpt lat="32.7636348" lon="35.2215611">
    <ele>217.1</ele>
    <time>2013-02-10T19:30:40Z</time>
   </trkpt>
   <trkpt lat="32.7637405" lon="35.2215910">
    <ele>217.8</ele>
    <time>2013-02-10T19:30:43Z</time>
   </trkpt>
   <trkpt lat="32.7638084" lon="35.2215655">
    <ele>218.0</ele>
    <time>2013-02-10T19:30:46Z</time>
   </trkpt>
   <trkpt lat="32.7638287" lon="35.2215438">
    <ele>218.3</ele>
    <time>2013-02-10T19:30:49Z</time>
   </trkpt>
  </trkseg>
 </trk>
</gpx>
